Missouri River (Missouri), Waverly (06895500)

StateMissouriLatestUnknown (53400 cfs)
RiverMissouri RiverRatingObservedEstimated
Updated2026-05-05 9:00 (43 minutes ago)Flood - The river is flooding. Obstacles can be treacherous or deadly. The river should be avoided at this stage for casual trips and definitely for the inexperienced. Trips should be attempted only with protective gear and equipment.Flood(none)(none)
Discharge53400 cfs (median: 62300 cfs)High - The river is high and potentially dangerous, especially for the young and / or inexperienced. Normal stream obstacles are sometimes difficult to navigate. Extended distances can be attempted, but canoe travel may not be advisable.High(none)(none)
Height12.55 feetGood - Conditions are ideal for a canoe or kayak. Boats typically will drag on fewer than one-quarter of riffles, if at all, and portages are unnecessary or rare. Normal float lengths can be attempted without a problem.Good(none)(none)
TrendRising (falling over 24 hours)Low - River is low but can still be floated. Some riffles are okay but most come with significant dragging and might need a portage. Float lengths should be reduced to accommodate low flow, dragging, and portages.Low(none)(none)
USGSExternal icon USGS Site (External icon Duck Duck Go Maps)Poor - River is too low to float comfortably. Most or all riffles will drag or must be portaged and some obstacles (such as slick shelf rock) cause undue problems. Avoid the river at this stage for casual paddling trips.Poor(none)(none)

Trending Data

Plot Image

Trips for Missouri River (Missouri), Waverly (06895500)

DateStartEndDistanceConditionDischargeHeightFishingDetails

A total of 0 rows are displayed.

Condition Descriptions

Fishing Conditions

Fish Species

Notes

Classic Trip List

The classic River Trips application is still available for use. It is updated with the new system using a data retrofit. It is no longer maintained. The original River Trips application is no longer updated (as of 1 Dec 2016) but can be checked for errors or for the condition of the data before it was converted to the new system.

Gauge Data Table

ObservationHeightDischargeMaximum
Discharge
Minimum
Discharge
Mean
Discharge
P05P10P20P25P50
(Median)
P75P80P90P95
2026-05-05 09:00 12.55 53400 163000 (1999) 37100 (1981) 71400 38400 39900 42400 45400 62300 90000 94000 123000 149000
2026-05-05 08:00 12.50 53100 163000 (1999) 37100 (1981) 71400 38400 39900 42400 45400 62300 90000 94000 123000 149000
2026-05-05 07:00 12.53 53300 163000 (1999) 37100 (1981) 71400 38400 39900 42400 45400 62300 90000 94000 123000 149000
2026-05-05 06:00 12.55 53400 163000 (1999) 37100 (1981) 71400 38400 39900 42400 45400 62300 90000 94000 123000 149000
2026-05-05 05:00 12.50 53100 163000 (1999) 37100 (1981) 71400 38400 39900 42400 45400 62300 90000 94000 123000 149000
2026-05-05 04:00 12.54 53300 163000 (1999) 37100 (1981) 71400 38400 39900 42400 45400 62300 90000 94000 123000 149000
2026-05-05 03:00 12.52 53200 163000 (1999) 37100 (1981) 71400 38400 39900 42400 45400 62300 90000 94000 123000 149000
2026-05-05 02:00 12.57 53500 163000 (1999) 37100 (1981) 71400 38400 39900 42400 45400 62300 90000 94000 123000 149000
2026-05-05 01:00 12.52 53200 163000 (1999) 37100 (1981) 71400 38400 39900 42400 45400 62300 90000 94000 123000 149000
2026-05-05 00:00 12.57 53500 163000 (1999) 37100 (1981) 71400 38400 39900 42400 45400 62300 90000 94000 123000 149000
2026-05-04 23:00 12.56 53400 163000 (1999) 37100 (1981) 71400 38400 39900 42400 45400 62300 90000 94000 123000 149000
2026-05-04 22:00 12.57 53500 168000 (1984) 36200 (1981) 71300 38900 40000 42600 44300 62600 87200 92800 116000 154000
2026-05-04 21:00 12.57 53500 168000 (1984) 36200 (1981) 71300 38900 40000 42600 44300 62600 87200 92800 116000 154000
2026-05-04 20:00 12.57 53500 168000 (1984) 36200 (1981) 71300 38900 40000 42600 44300 62600 87200 92800 116000 154000
2026-05-04 19:00 12.59 53600 168000 (1984) 36200 (1981) 71300 38900 40000 42600 44300 62600 87200 92800 116000 154000
2026-05-04 18:00 12.59 53600 168000 (1984) 36200 (1981) 71300 38900 40000 42600 44300 62600 87200 92800 116000 154000
2026-05-04 17:00 12.59 53600 168000 (1984) 36200 (1981) 71300 38900 40000 42600 44300 62600 87200 92800 116000 154000
2026-05-04 16:00 12.58 53600 168000 (1984) 36200 (1981) 71300 38900 40000 42600 44300 62600 87200 92800 116000 154000
2026-05-04 15:00 12.61 53800 168000 (1984) 36200 (1981) 71300 38900 40000 42600 44300 62600 87200 92800 116000 154000
2026-05-04 14:00 12.63 53900 168000 (1984) 36200 (1981) 71300 38900 40000 42600 44300 62600 87200 92800 116000 154000
2026-05-04 13:00 12.57 53500 168000 (1984) 36200 (1981) 71300 38900 40000 42600 44300 62600 87200 92800 116000 154000
2026-05-04 12:00 12.64 54000 168000 (1984) 36200 (1981) 71300 38900 40000 42600 44300 62600 87200 92800 116000 154000
2026-05-04 11:00 12.57 53500 168000 (1984) 36200 (1981) 71300 38900 40000 42600 44300 62600 87200 92800 116000 154000
2026-05-04 10:00 12.60 53700 168000 (1984) 36200 (1981) 71300 38900 40000 42600 44300 62600 87200 92800 116000 154000
2026-05-04 09:00 12.61 53800 168000 (1984) 36200 (1981) 71300 38900 40000 42600 44300 62600 87200 92800 116000 154000
2026-05-04 08:00 12.64 54000 168000 (1984) 36200 (1981) 71300 38900 40000 42600 44300 62600 87200 92800 116000 154000
2026-05-04 07:00 12.65 54000 168000 (1984) 36200 (1981) 71300 38900 40000 42600 44300 62600 87200 92800 116000 154000
2026-05-04 06:00 12.66 54100 168000 (1984) 36200 (1981) 71300 38900 40000 42600 44300 62600 87200 92800 116000 154000
2026-05-04 05:00 12.67 54200 168000 (1984) 36200 (1981) 71300 38900 40000 42600 44300 62600 87200 92800 116000 154000
2026-05-04 04:00 12.67 54200 168000 (1984) 36200 (1981) 71300 38900 40000 42600 44300 62600 87200 92800 116000 154000
2026-05-04 03:00 12.68 54200 168000 (1984) 36200 (1981) 71300 38900 40000 42600 44300 62600 87200 92800 116000 154000
2026-05-04 02:00 12.69 54300 168000 (1984) 36200 (1981) 71300 38900 40000 42600 44300 62600 87200 92800 116000 154000
2026-05-04 01:00 12.68 54200 168000 (1984) 36200 (1981) 71300 38900 40000 42600 44300 62600 87200 92800 116000 154000
2026-05-04 00:00 12.71 54400 168000 (1984) 36200 (1981) 71300 38900 40000 42600 44300 62600 87200 92800 116000 154000
2026-05-03 23:00 12.73 54600 168000 (1984) 36200 (1981) 71300 38900 40000 42600 44300 62600 87200 92800 116000 154000
2026-05-03 22:00 12.73 54600 191000 (1984) 36800 (1981) 72100 38200 39500 42600 44000 65800 89100 93200 114000 163000
2026-05-03 21:00 12.75 54700 191000 (1984) 36800 (1981) 72100 38200 39500 42600 44000 65800 89100 93200 114000 163000
2026-05-03 20:00 12.76 54800 191000 (1984) 36800 (1981) 72100 38200 39500 42600 44000 65800 89100 93200 114000 163000
2026-05-03 19:00 12.78 54900 191000 (1984) 36800 (1981) 72100 38200 39500 42600 44000 65800 89100 93200 114000 163000
2026-05-03 18:00 12.78 54900 191000 (1984) 36800 (1981) 72100 38200 39500 42600 44000 65800 89100 93200 114000 163000
2026-05-03 17:00 12.82 55200 191000 (1984) 36800 (1981) 72100 38200 39500 42600 44000 65800 89100 93200 114000 163000
2026-05-03 16:00 12.82 55200 191000 (1984) 36800 (1981) 72100 38200 39500 42600 44000 65800 89100 93200 114000 163000
2026-05-03 15:00 12.80 55000 191000 (1984) 36800 (1981) 72100 38200 39500 42600 44000 65800 89100 93200 114000 163000
2026-05-03 14:00 12.82 55200 191000 (1984) 36800 (1981) 72100 38200 39500 42600 44000 65800 89100 93200 114000 163000
2026-05-03 13:00 12.86 55400 191000 (1984) 36800 (1981) 72100 38200 39500 42600 44000 65800 89100 93200 114000 163000
2026-05-03 12:00 12.87 55500 191000 (1984) 36800 (1981) 72100 38200 39500 42600 44000 65800 89100 93200 114000 163000
2026-05-03 11:00 12.89 55600 191000 (1984) 36800 (1981) 72100 38200 39500 42600 44000 65800 89100 93200 114000 163000
2026-05-03 10:00 12.89 55600 191000 (1984) 36800 (1981) 72100 38200 39500 42600 44000 65800 89100 93200 114000 163000
2026-05-03 09:00 12.94 56000 191000 (1984) 36800 (1981) 72100 38200 39500 42600 44000 65800 89100 93200 114000 163000
2026-05-03 08:00 12.98 56200 191000 (1984) 36800 (1981) 72100 38200 39500 42600 44000 65800 89100 93200 114000 163000
2026-05-03 07:00 13.02 56500 191000 (1984) 36800 (1981) 72100 38200 39500 42600 44000 65800 89100 93200 114000 163000
2026-05-03 06:00 13.05 56700 191000 (1984) 36800 (1981) 72100 38200 39500 42600 44000 65800 89100 93200 114000 163000
2026-05-03 05:00 13.08 56900 191000 (1984) 36800 (1981) 72100 38200 39500 42600 44000 65800 89100 93200 114000 163000
2026-05-03 04:00 13.11 57100 191000 (1984) 36800 (1981) 72100 38200 39500 42600 44000 65800 89100 93200 114000 163000
2026-05-03 03:00 13.13 57200 191000 (1984) 36800 (1981) 72100 38200 39500 42600 44000 65800 89100 93200 114000 163000
2026-05-03 02:00 13.12 57200 191000 (1984) 36800 (1981) 72100 38200 39500 42600 44000 65800 89100 93200 114000 163000
2026-05-03 01:00 13.20 57700 191000 (1984) 36800 (1981) 72100 38200 39500 42600 44000 65800 89100 93200 114000 163000
2026-05-03 00:00 13.22 57900 191000 (1984) 36800 (1981) 72100 38200 39500 42600 44000 65800 89100 93200 114000 163000
2026-05-02 23:00 13.24 58000 191000 (1984) 36800 (1981) 72100 38200 39500 42600 44000 65800 89100 93200 114000 163000
2026-05-02 22:00 13.26 58100 201000 (1984) 36900 (1981) 73600 37500 40500 43300 44000 67200 89100 98600 122000 165000
2026-05-02 21:00 13.27 58200 201000 (1984) 36900 (1981) 73600 37500 40500 43300 44000 67200 89100 98600 122000 165000
2026-05-02 20:00 13.30 58400 201000 (1984) 36900 (1981) 73600 37500 40500 43300 44000 67200 89100 98600 122000 165000
2026-05-02 19:00 13.31 58500 201000 (1984) 36900 (1981) 73600 37500 40500 43300 44000 67200 89100 98600 122000 165000
2026-05-02 18:00 13.34 58700 201000 (1984) 36900 (1981) 73600 37500 40500 43300 44000 67200 89100 98600 122000 165000
2026-05-02 17:00 13.36 58800 201000 (1984) 36900 (1981) 73600 37500 40500 43300 44000 67200 89100 98600 122000 165000
2026-05-02 16:00 13.37 58900 201000 (1984) 36900 (1981) 73600 37500 40500 43300 44000 67200 89100 98600 122000 165000
2026-05-02 15:00 13.39 59000 201000 (1984) 36900 (1981) 73600 37500 40500 43300 44000 67200 89100 98600 122000 165000
2026-05-02 14:00 13.40 59100 201000 (1984) 36900 (1981) 73600 37500 40500 43300 44000 67200 89100 98600 122000 165000
2026-05-02 13:00 13.42 59300 201000 (1984) 36900 (1981) 73600 37500 40500 43300 44000 67200 89100 98600 122000 165000
2026-05-02 12:00 13.45 59500 201000 (1984) 36900 (1981) 73600 37500 40500 43300 44000 67200 89100 98600 122000 165000
2026-05-02 11:00 13.45 59500 201000 (1984) 36900 (1981) 73600 37500 40500 43300 44000 67200 89100 98600 122000 165000
2026-05-02 10:00 13.46 59500 201000 (1984) 36900 (1981) 73600 37500 40500 43300 44000 67200 89100 98600 122000 165000
2026-05-02 09:00 13.48 59700 201000 (1984) 36900 (1981) 73600 37500 40500 43300 44000 67200 89100 98600 122000 165000
2026-05-02 08:00 13.51 59900 201000 (1984) 36900 (1981) 73600 37500 40500 43300 44000 67200 89100 98600 122000 165000
2026-05-02 07:00 13.54 60100 201000 (1984) 36900 (1981) 73600 37500 40500 43300 44000 67200 89100 98600 122000 165000
2026-05-02 06:00 13.56 60200 201000 (1984) 36900 (1981) 73600 37500 40500 43300 44000 67200 89100 98600 122000 165000
2026-05-02 05:00 13.57 60300 201000 (1984) 36900 (1981) 73600 37500 40500 43300 44000 67200 89100 98600 122000 165000
2026-05-02 04:00 13.58 60400 201000 (1984) 36900 (1981) 73600 37500 40500 43300 44000 67200 89100 98600 122000 165000
2026-05-02 03:00 13.60 60500 201000 (1984) 36900 (1981) 73600 37500 40500 43300 44000 67200 89100 98600 122000 165000
2026-05-02 02:00 13.63 60700 201000 (1984) 36900 (1981) 73600 37500 40500 43300 44000 67200 89100 98600 122000 165000
2026-05-02 01:00 13.65 60900 201000 (1984) 36900 (1981) 73600 37500 40500 43300 44000 67200 89100 98600 122000 165000
2026-05-02 00:00 13.68 61100 201000 (1984) 36900 (1981) 73600 37500 40500 43300 44000 67200 89100 98600 122000 165000
2026-05-01 23:00 13.71 61300 201000 (1984) 36900 (1981) 73600 37500 40500 43300 44000 67200 89100 98600 122000 165000
2026-05-01 22:00 13.75 61600 185000 (1984) 36600 (1967) 73700 38400 41100 43600 44800 66500 88700 95000 119000 151000
2026-05-01 21:00 13.78 61800 185000 (1984) 36600 (1967) 73700 38400 41100 43600 44800 66500 88700 95000 119000 151000
2026-05-01 20:00 13.83 62200 185000 (1984) 36600 (1967) 73700 38400 41100 43600 44800 66500 88700 95000 119000 151000
2026-05-01 19:00 13.87 62500 185000 (1984) 36600 (1967) 73700 38400 41100 43600 44800 66500 88700 95000 119000 151000
2026-05-01 18:00 13.91 62800 185000 (1984) 36600 (1967) 73700 38400 41100 43600 44800 66500 88700 95000 119000 151000
2026-05-01 17:00 13.96 63100 185000 (1984) 36600 (1967) 73700 38400 41100 43600 44800 66500 88700 95000 119000 151000
2026-05-01 16:00 13.98 63300 185000 (1984) 36600 (1967) 73700 38400 41100 43600 44800 66500 88700 95000 119000 151000
2026-05-01 15:00 14.06 63900 185000 (1984) 36600 (1967) 73700 38400 41100 43600 44800 66500 88700 95000 119000 151000
2026-05-01 14:00 14.13 64400 185000 (1984) 36600 (1967) 73700 38400 41100 43600 44800 66500 88700 95000 119000 151000
2026-05-01 13:00 14.19 64800 185000 (1984) 36600 (1967) 73700 38400 41100 43600 44800 66500 88700 95000 119000 151000
2026-05-01 12:00 14.25 65300 185000 (1984) 36600 (1967) 73700 38400 41100 43600 44800 66500 88700 95000 119000 151000
2026-05-01 11:00 14.31 65700 185000 (1984) 36600 (1967) 73700 38400 41100 43600 44800 66500 88700 95000 119000 151000
2026-05-01 10:00 14.38 66300 185000 (1984) 36600 (1967) 73700 38400 41100 43600 44800 66500 88700 95000 119000 151000
2026-05-01 09:00 14.44 66700 185000 (1984) 36600 (1967) 73700 38400 41100 43600 44800 66500 88700 95000 119000 151000
2026-05-01 08:00 14.53 67400 185000 (1984) 36600 (1967) 73700 38400 41100 43600 44800 66500 88700 95000 119000 151000
2026-05-01 07:00 14.62 68100 185000 (1984) 36600 (1967) 73700 38400 41100 43600 44800 66500 88700 95000 119000 151000
2026-05-01 06:00 14.69 68700 185000 (1984) 36600 (1967) 73700 38400 41100 43600 44800 66500 88700 95000 119000 151000
2026-05-01 05:00 14.78 69400 185000 (1984) 36600 (1967) 73700 38400 41100 43600 44800 66500 88700 95000 119000 151000
2026-05-01 04:00 14.87 70100 185000 (1984) 36600 (1967) 73700 38400 41100 43600 44800 66500 88700 95000 119000 151000
2026-05-01 03:00 14.95 70700 185000 (1984) 36600 (1967) 73700 38400 41100 43600 44800 66500 88700 95000 119000 151000
2026-05-01 02:00 15.04 71500 185000 (1984) 36600 (1967) 73700 38400 41100 43600 44800 66500 88700 95000 119000 151000
2026-05-01 01:00 15.12 72100 185000 (1984) 36600 (1967) 73700 38400 41100 43600 44800 66500 88700 95000 119000 151000
2026-05-01 00:00 15.21 72800 185000 (1984) 36600 (1967) 73700 38400 41100 43600 44800 66500 88700 95000 119000 151000
2026-04-30 23:00 15.29 73500 185000 (1984) 36600 (1967) 73700 38400 41100 43600 44800 66500 88700 95000 119000 151000
2026-04-30 22:00 15.39 74300 173000 (1999) 36800 (1981) 73100 39600 40800 43800 45400 64800 93000 99700 127000 140000
2026-04-30 21:00 15.50 75200 173000 (1999) 36800 (1981) 73100 39600 40800 43800 45400 64800 93000 99700 127000 140000
2026-04-30 20:00 15.63 76300 173000 (1999) 36800 (1981) 73100 39600 40800 43800 45400 64800 93000 99700 127000 140000
2026-04-30 19:00 15.73 77200 173000 (1999) 36800 (1981) 73100 39600 40800 43800 45400 64800 93000 99700 127000 140000
2026-04-30 18:00 15.83 78100 173000 (1999) 36800 (1981) 73100 39600 40800 43800 45400 64800 93000 99700 127000 140000
2026-04-30 17:00 15.90 78700 173000 (1999) 36800 (1981) 73100 39600 40800 43800 45400 64800 93000 99700 127000 140000
2026-04-30 16:00 16.05 80000 173000 (1999) 36800 (1981) 73100 39600 40800 43800 45400 64800 93000 99700 127000 140000
2026-04-30 15:00 16.15 80900 173000 (1999) 36800 (1981) 73100 39600 40800 43800 45400 64800 93000 99700 127000 140000
2026-04-30 14:00 16.33 82500 173000 (1999) 36800 (1981) 73100 39600 40800 43800 45400 64800 93000 99700 127000 140000
2026-04-30 13:00 16.40 83100 173000 (1999) 36800 (1981) 73100 39600 40800 43800 45400 64800 93000 99700 127000 140000
2026-04-30 12:00 16.57 84600 173000 (1999) 36800 (1981) 73100 39600 40800 43800 45400 64800 93000 99700 127000 140000
2026-04-30 11:00 16.67 85600 173000 (1999) 36800 (1981) 73100 39600 40800 43800 45400 64800 93000 99700 127000 140000
2026-04-30 10:00 16.84 87100 173000 (1999) 36800 (1981) 73100 39600 40800 43800 45400 64800 93000 99700 127000 140000
2026-04-30 09:00 17.00 88600 173000 (1999) 36800 (1981) 73100 39600 40800 43800 45400 64800 93000 99700 127000 140000
2026-04-30 08:00 17.14 90000 173000 (1999) 36800 (1981) 73100 39600 40800 43800 45400 64800 93000 99700 127000 140000
2026-04-30 07:00 17.26 91100 173000 (1999) 36800 (1981) 73100 39600 40800 43800 45400 64800 93000 99700 127000 140000
2026-04-30 06:00 17.40 92500 173000 (1999) 36800 (1981) 73100 39600 40800 43800 45400 64800 93000 99700 127000 140000
2026-04-30 05:00 17.52 93700 173000 (1999) 36800 (1981) 73100 39600 40800 43800 45400 64800 93000 99700 127000 140000
2026-04-30 04:00 17.64 94900 173000 (1999) 36800 (1981) 73100 39600 40800 43800 45400 64800 93000 99700 127000 140000
2026-04-30 03:00 17.76 96100 173000 (1999) 36800 (1981) 73100 39600 40800 43800 45400 64800 93000 99700 127000 140000
2026-04-30 02:00 17.88 97300 173000 (1999) 36800 (1981) 73100 39600 40800 43800 45400 64800 93000 99700 127000 140000
2026-04-30 01:00 18.01 98600 173000 (1999) 36800 (1981) 73100 39600 40800 43800 45400 64800 93000 99700 127000 140000
2026-04-30 00:00 18.13 99900 173000 (1999) 36800 (1981) 73100 39600 40800 43800 45400 64800 93000 99700 127000 140000
2026-04-29 23:00 18.26 101000 173000 (1999) 36800 (1981) 73100 39600 40800 43800 45400 64800 93000 99700 127000 140000
2026-04-29 22:00 18.38 102000 219000 (1999) 35900 (1981) 74600 38100 40100 44200 44900 62500 87800 101000 133000 166000
2026-04-29 21:00 18.52 104000 219000 (1999) 35900 (1981) 74600 38100 40100 44200 44900 62500 87800 101000 133000 166000
2026-04-29 20:00 18.65 105000 219000 (1999) 35900 (1981) 74600 38100 40100 44200 44900 62500 87800 101000 133000 166000
2026-04-29 19:00 18.74 106000 219000 (1999) 35900 (1981) 74600 38100 40100 44200 44900 62500 87800 101000 133000 166000
2026-04-29 18:00 18.89 108000 219000 (1999) 35900 (1981) 74600 38100 40100 44200 44900 62500 87800 101000 133000 166000
2026-04-29 17:00 19.00 109000 219000 (1999) 35900 (1981) 74600 38100 40100 44200 44900 62500 87800 101000 133000 166000
2026-04-29 16:00 19.12 111000 219000 (1999) 35900 (1981) 74600 38100 40100 44200 44900 62500 87800 101000 133000 166000
2026-04-29 15:00 19.20 111000 219000 (1999) 35900 (1981) 74600 38100 40100 44200 44900 62500 87800 101000 133000 166000
2026-04-29 14:00 19.27 112000 219000 (1999) 35900 (1981) 74600 38100 40100 44200 44900 62500 87800 101000 133000 166000
2026-04-29 13:00 19.38 113000 219000 (1999) 35900 (1981) 74600 38100 40100 44200 44900 62500 87800 101000 133000 166000
2026-04-29 12:00 19.45 114000 219000 (1999) 35900 (1981) 74600 38100 40100 44200 44900 62500 87800 101000 133000 166000
2026-04-29 11:00 19.54 115000 219000 (1999) 35900 (1981) 74600 38100 40100 44200 44900 62500 87800 101000 133000 166000
2026-04-29 10:00 19.65 117000 219000 (1999) 35900 (1981) 74600 38100 40100 44200 44900 62500 87800 101000 133000 166000
2026-04-29 09:00 19.72 117000 219000 (1999) 35900 (1981) 74600 38100 40100 44200 44900 62500 87800 101000 133000 166000
2026-04-29 08:00 19.77 118000 219000 (1999) 35900 (1981) 74600 38100 40100 44200 44900 62500 87800 101000 133000 166000
2026-04-29 07:00 19.83 119000 219000 (1999) 35900 (1981) 74600 38100 40100 44200 44900 62500 87800 101000 133000 166000
2026-04-29 06:00 19.89 119000 219000 (1999) 35900 (1981) 74600 38100 40100 44200 44900 62500 87800 101000 133000 166000
2026-04-29 05:00 19.94 120000 219000 (1999) 35900 (1981) 74600 38100 40100 44200 44900 62500 87800 101000 133000 166000
2026-04-29 04:00 19.94 120000 219000 (1999) 35900 (1981) 74600 38100 40100 44200 44900 62500 87800 101000 133000 166000
2026-04-29 03:00 19.93 120000 219000 (1999) 35900 (1981) 74600 38100 40100 44200 44900 62500 87800 101000 133000 166000
2026-04-29 02:00 19.93 120000 219000 (1999) 35900 (1981) 74600 38100 40100 44200 44900 62500 87800 101000 133000 166000
2026-04-29 01:00 19.91 120000 219000 (1999) 35900 (1981) 74600 38100 40100 44200 44900 62500 87800 101000 133000 166000
2026-04-29 00:00 19.90 120000 219000 (1999) 35900 (1981) 74600 38100 40100 44200 44900 62500 87800 101000 133000 166000
2026-04-28 23:00 19.86 119000 219000 (1999) 35900 (1981) 74600 38100 40100 44200 44900 62500 87800 101000 133000 166000
2026-04-28 22:00 19.85 119000 193000 (2016) 34400 (1981) 72500 37700 39700 44900 45400 58900 83900 90700 131000 176000
2026-04-28 21:00 19.82 119000 193000 (2016) 34400 (1981) 72500 37700 39700 44900 45400 58900 83900 90700 131000 176000
2026-04-28 20:00 19.75 118000 193000 (2016) 34400 (1981) 72500 37700 39700 44900 45400 58900 83900 90700 131000 176000
2026-04-28 19:00 19.73 118000 193000 (2016) 34400 (1981) 72500 37700 39700 44900 45400 58900 83900 90700 131000 176000
2026-04-28 18:00 19.67 117000 193000 (2016) 34400 (1981) 72500 37700 39700 44900 45400 58900 83900 90700 131000 176000
2026-04-28 17:00 19.63 116000 193000 (2016) 34400 (1981) 72500 37700 39700 44900 45400 58900 83900 90700 131000 176000
2026-04-28 16:00 19.58 116000 193000 (2016) 34400 (1981) 72500 37700 39700 44900 45400 58900 83900 90700 131000 176000
2026-04-28 15:00 19.48 115000 193000 (2016) 34400 (1981) 72500 37700 39700 44900 45400 58900 83900 90700 131000 176000
2026-04-28 14:00 19.42 114000 193000 (2016) 34400 (1981) 72500 37700 39700 44900 45400 58900 83900 90700 131000 176000
2026-04-28 13:00 19.30 113000 193000 (2016) 34400 (1981) 72500 37700 39700 44900 45400 58900 83900 90700 131000 176000
2026-04-28 12:00 19.23 112000 193000 (2016) 34400 (1981) 72500 37700 39700 44900 45400 58900 83900 90700 131000 176000
2026-04-28 11:00 19.19 111000 193000 (2016) 34400 (1981) 72500 37700 39700 44900 45400 58900 83900 90700 131000 176000
2026-04-28 10:00 19.12 111000 193000 (2016) 34400 (1981) 72500 37700 39700 44900 45400 58900 83900 90700 131000 176000
2026-04-28 09:00 19.08 110000 193000 (2016) 34400 (1981) 72500 37700 39700 44900 45400 58900 83900 90700 131000 176000
2026-04-28 08:00 19.02 109000 193000 (2016) 34400 (1981) 72500 37700 39700 44900 45400 58900 83900 90700 131000 176000
2026-04-28 07:00 18.90 108000 193000 (2016) 34400 (1981) 72500 37700 39700 44900 45400 58900 83900 90700 131000 176000
2026-04-28 06:00 18.76 107000 193000 (2016) 34400 (1981) 72500 37700 39700 44900 45400 58900 83900 90700 131000 176000
2026-04-28 05:00 18.63 105000 193000 (2016) 34400 (1981) 72500 37700 39700 44900 45400 58900 83900 90700 131000 176000
2026-04-28 04:00 18.47 103000 193000 (2016) 34400 (1981) 72500 37700 39700 44900 45400 58900 83900 90700 131000 176000
2026-04-28 03:00 18.29 102000 193000 (2016) 34400 (1981) 72500 37700 39700 44900 45400 58900 83900 90700 131000 176000
2026-04-28 02:00 18.09 99400 193000 (2016) 34400 (1981) 72500 37700 39700 44900 45400 58900 83900 90700 131000 176000
2026-04-28 01:00 17.85 97000 193000 (2016) 34400 (1981) 72500 37700 39700 44900 45400 58900 83900 90700 131000 176000
2026-04-28 00:00 17.57 94200 193000 (2016) 34400 (1981) 72500 37700 39700 44900 45400 58900 83900 90700 131000 176000
2026-04-27 23:00 17.26 91100 193000 (2016) 34400 (1981) 72500 37700 39700 44900 45400 58900 83900 90700 131000 176000
2026-04-27 22:00 16.88 87500 144000 (1984) 34600 (1981) 67700 37600 40400 43700 44900 56200 85500 89700 118000 136000
2026-04-27 21:00 16.41 83200 144000 (1984) 34600 (1981) 67700 37600 40400 43700 44900 56200 85500 89700 118000 136000
2026-04-27 20:00 16.00 79500 144000 (1984) 34600 (1981) 67700 37600 40400 43700 44900 56200 85500 89700 118000 136000
2026-04-27 19:00 15.48 75100 144000 (1984) 34600 (1981) 67700 37600 40400 43700 44900 56200 85500 89700 118000 136000
2026-04-27 18:00 14.97 70900 144000 (1984) 34600 (1981) 67700 37600 40400 43700 44900 56200 85500 89700 118000 136000
2026-04-27 17:00 14.52 67400 144000 (1984) 34600 (1981) 67700 37600 40400 43700 44900 56200 85500 89700 118000 136000
2026-04-27 16:00 14.01 63500 144000 (1984) 34600 (1981) 67700 37600 40400 43700 44900 56200 85500 89700 118000 136000
2026-04-27 15:00 13.67 61000 144000 (1984) 34600 (1981) 67700 37600 40400 43700 44900 56200 85500 89700 118000 136000
2026-04-27 14:00 13.31 58500 144000 (1984) 34600 (1981) 67700 37600 40400 43700 44900 56200 85500 89700 118000 136000
2026-04-27 13:00 12.98 56200 144000 (1984) 34600 (1981) 67700 37600 40400 43700 44900 56200 85500 89700 118000 136000
2026-04-27 12:00 12.76 54800 144000 (1984) 34600 (1981) 67700 37600 40400 43700 44900 56200 85500 89700 118000 136000
2026-04-27 11:00 12.60 53700 144000 (1984) 34600 (1981) 67700 37600 40400 43700 44900 56200 85500 89700 118000 136000
2026-04-27 10:00 12.45 52700 144000 (1984) 34600 (1981) 67700 37600 40400 43700 44900 56200 85500 89700 118000 136000
2026-04-27 09:00 12.30 51800 144000 (1984) 34600 (1981) 67700 37600 40400 43700 44900 56200 85500 89700 118000 136000
2026-04-27 08:00 12.22 51300 144000 (1984) 34600 (1981) 67700 37600 40400 43700 44900 56200 85500 89700 118000 136000
2026-04-27 07:00 12.17 51000 144000 (1984) 34600 (1981) 67700 37600 40400 43700 44900 56200 85500 89700 118000 136000
2026-04-27 06:00 12.07 50300 144000 (1984) 34600 (1981) 67700 37600 40400 43700 44900 56200 85500 89700 118000 136000
2026-04-27 05:00 11.93 49500 144000 (1984) 34600 (1981) 67700 37600 40400 43700 44900 56200 85500 89700 118000 136000
2026-04-27 04:00 11.93 49500 144000 (1984) 34600 (1981) 67700 37600 40400 43700 44900 56200 85500 89700 118000 136000
2026-04-27 03:00 11.94 49500 144000 (1984) 34600 (1981) 67700 37600 40400 43700 44900 56200 85500 89700 118000 136000
2026-04-27 02:00 11.93 49500 144000 (1984) 34600 (1981) 67700 37600 40400 43700 44900 56200 85500 89700 118000 136000
2026-04-27 01:00 11.95 49600 144000 (1984) 34600 (1981) 67700 37600 40400 43700 44900 56200 85500 89700 118000 136000
2026-04-27 00:00 11.94 49500 144000 (1984) 34600 (1981) 67700 37600 40400 43700 44900 56200 85500 89700 118000 136000
2026-04-26 23:00 12.00 49900 144000 (1984) 34600 (1981) 67700 37600 40400 43700 44900 56200 85500 89700 118000 136000
2026-04-26 22:00 11.91 49300 152000 (1984) 34700 (1990) 66700 36900 40000 44200 45400 55300 84200 89900 109000 126000
2026-04-26 21:00 11.86 49000 152000 (1984) 34700 (1990) 66700 36900 40000 44200 45400 55300 84200 89900 109000 126000
2026-04-26 20:00 11.84 48900 152000 (1984) 34700 (1990) 66700 36900 40000 44200 45400 55300 84200 89900 109000 126000
2026-04-26 19:00 11.94 49500 152000 (1984) 34700 (1990) 66700 36900 40000 44200 45400 55300 84200 89900 109000 126000
2026-04-26 18:00 11.96 49700 152000 (1984) 34700 (1990) 66700 36900 40000 44200 45400 55300 84200 89900 109000 126000
2026-04-26 17:00 11.94 49500 152000 (1984) 34700 (1990) 66700 36900 40000 44200 45400 55300 84200 89900 109000 126000
2026-04-26 16:00 11.89 49200 152000 (1984) 34700 (1990) 66700 36900 40000 44200 45400 55300 84200 89900 109000 126000
2026-04-26 15:00 11.88 49200 152000 (1984) 34700 (1990) 66700 36900 40000 44200 45400 55300 84200 89900 109000 126000
2026-04-26 14:00 11.89 49200 152000 (1984) 34700 (1990) 66700 36900 40000 44200 45400 55300 84200 89900 109000 126000
2026-04-26 13:00 11.91 49300 152000 (1984) 34700 (1990) 66700 36900 40000 44200 45400 55300 84200 89900 109000 126000
2026-04-26 12:00 11.90 49300 152000 (1984) 34700 (1990) 66700 36900 40000 44200 45400 55300 84200 89900 109000 126000
2026-04-26 11:00 11.94 49500 152000 (1984) 34700 (1990) 66700 36900 40000 44200 45400 55300 84200 89900 109000 126000
2026-04-26 10:00 11.94 49500 152000 (1984) 34700 (1990) 66700 36900 40000 44200 45400 55300 84200 89900 109000 126000
2026-04-26 09:00 11.95 49600 152000 (1984) 34700 (1990) 66700 36900 40000 44200 45400 55300 84200 89900 109000 126000
2026-04-26 08:00 11.98 49800 152000 (1984) 34700 (1990) 66700 36900 40000 44200 45400 55300 84200 89900 109000 126000
2026-04-26 07:00 12.02 50000 152000 (1984) 34700 (1990) 66700 36900 40000 44200 45400 55300 84200 89900 109000 126000
2026-04-26 06:00 12.06 50300 152000 (1984) 34700 (1990) 66700 36900 40000 44200 45400 55300 84200 89900 109000 126000
2026-04-26 05:00 12.04 50100 152000 (1984) 34700 (1990) 66700 36900 40000 44200 45400 55300 84200 89900 109000 126000
2026-04-26 04:00 12.08 50400 152000 (1984) 34700 (1990) 66700 36900 40000 44200 45400 55300 84200 89900 109000 126000
2026-04-26 03:00 12.15 50800 152000 (1984) 34700 (1990) 66700 36900 40000 44200 45400 55300 84200 89900 109000 126000
2026-04-26 02:00 12.18 51000 152000 (1984) 34700 (1990) 66700 36900 40000 44200 45400 55300 84200 89900 109000 126000
2026-04-26 01:00 12.19 51100 152000 (1984) 34700 (1990) 66700 36900 40000 44200 45400 55300 84200 89900 109000 126000
2026-04-26 00:00 12.18 51000 152000 (1984) 34700 (1990) 66700 36900 40000 44200 45400 55300 84200 89900 109000 126000
2026-04-25 23:00 12.28 51700 152000 (1984) 34700 (1990) 66700 36900 40000 44200 45400 55300 84200 89900 109000 126000
2026-04-25 22:00 12.32 51900 154000 (1984) 34700 (1990) 68100 37900 40800 44700 46100 56400 83600 94700 110000 134000
2026-04-25 21:00 12.37 52200 154000 (1984) 34700 (1990) 68100 37900 40800 44700 46100 56400 83600 94700 110000 134000
2026-04-25 20:00 12.42 52500 154000 (1984) 34700 (1990) 68100 37900 40800 44700 46100 56400 83600 94700 110000 134000
2026-04-25 19:00 12.47 52900 154000 (1984) 34700 (1990) 68100 37900 40800 44700 46100 56400 83600 94700 110000 134000
2026-04-25 18:00 12.50 53100 154000 (1984) 34700 (1990) 68100 37900 40800 44700 46100 56400 83600 94700 110000 134000
2026-04-25 17:00 12.51 53100 154000 (1984) 34700 (1990) 68100 37900 40800 44700 46100 56400 83600 94700 110000 134000
2026-04-25 16:00 12.56 53400 154000 (1984) 34700 (1990) 68100 37900 40800 44700 46100 56400 83600 94700 110000 134000
2026-04-25 15:00 12.63 53900 154000 (1984) 34700 (1990) 68100 37900 40800 44700 46100 56400 83600 94700 110000 134000
2026-04-25 14:00 12.68 54200 154000 (1984) 34700 (1990) 68100 37900 40800 44700 46100 56400 83600 94700 110000 134000
2026-04-25 13:00 12.75 54700 154000 (1984) 34700 (1990) 68100 37900 40800 44700 46100 56400 83600 94700 110000 134000
2026-04-25 12:00 12.81 55100 154000 (1984) 34700 (1990) 68100 37900 40800 44700 46100 56400 83600 94700 110000 134000
2026-04-25 11:00 12.82 55200 154000 (1984) 34700 (1990) 68100 37900 40800 44700 46100 56400 83600 94700 110000 134000
2026-04-25 10:00 12.89 55600 154000 (1984) 34700 (1990) 68100 37900 40800 44700 46100 56400 83600 94700 110000 134000
2026-04-25 09:00 12.93 55900 154000 (1984) 34700 (1990) 68100 37900 40800 44700 46100 56400 83600 94700 110000 134000
2026-04-25 08:00 12.99 56300 154000 (1984) 34700 (1990) 68100 37900 40800 44700 46100 56400 83600 94700 110000 134000
2026-04-25 07:00 13.11 57100 154000 (1984) 34700 (1990) 68100 37900 40800 44700 46100 56400 83600 94700 110000 134000
2026-04-25 06:00 13.16 57500 154000 (1984) 34700 (1990) 68100 37900 40800 44700 46100 56400 83600 94700 110000 134000
2026-04-25 05:00 13.19 57700 154000 (1984) 34700 (1990) 68100 37900 40800 44700 46100 56400 83600 94700 110000 134000
2026-04-25 04:00 13.20 57700 154000 (1984) 34700 (1990) 68100 37900 40800 44700 46100 56400 83600 94700 110000 134000
2026-04-25 03:00 13.21 57800 154000 (1984) 34700 (1990) 68100 37900 40800 44700 46100 56400 83600 94700 110000 134000
2026-04-25 02:00 13.20 57700 154000 (1984) 34700 (1990) 68100 37900 40800 44700 46100 56400 83600 94700 110000 134000
2026-04-25 01:00 13.20 57700 154000 (1984) 34700 (1990) 68100 37900 40800 44700 46100 56400 83600 94700 110000 134000
2026-04-25 00:00 13.20 57700 154000 (1984) 34700 (1990) 68100 37900 40800 44700 46100 56400 83600 94700 110000 134000
2026-04-24 23:00 13.16 57500 154000 (1984) 34700 (1990) 68100 37900 40800 44700 46100 56400 83600 94700 110000 134000
2026-04-24 22:00 13.10 57000 157000 (1984) 35200 (1990) 69400 37500 40500 44800 47500 59200 85400 88000 116000 141000
2026-04-24 21:00 13.06 56800 157000 (1984) 35200 (1990) 69400 37500 40500 44800 47500 59200 85400 88000 116000 141000
2026-04-24 20:00 13.00 56400 157000 (1984) 35200 (1990) 69400 37500 40500 44800 47500 59200 85400 88000 116000 141000
2026-04-24 19:00 12.92 55800 157000 (1984) 35200 (1990) 69400 37500 40500 44800 47500 59200 85400 88000 116000 141000
2026-04-24 18:00 12.83 55200 157000 (1984) 35200 (1990) 69400 37500 40500 44800 47500 59200 85400 88000 116000 141000
2026-04-24 17:00 12.71 54400 157000 (1984) 35200 (1990) 69400 37500 40500 44800 47500 59200 85400 88000 116000 141000
2026-04-24 16:00 12.64 54000 157000 (1984) 35200 (1990) 69400 37500 40500 44800 47500 59200 85400 88000 116000 141000
2026-04-24 15:00 12.52 53200 157000 (1984) 35200 (1990) 69400 37500 40500 44800 47500 59200 85400 88000 116000 141000
2026-04-24 14:00 12.40 52400 157000 (1984) 35200 (1990) 69400 37500 40500 44800 47500 59200 85400 88000 116000 141000
2026-04-24 13:00 12.28 51700 157000 (1984) 35200 (1990) 69400 37500 40500 44800 47500 59200 85400 88000 116000 141000
2026-04-24 12:00 12.13 50700 157000 (1984) 35200 (1990) 69400 37500 40500 44800 47500 59200 85400 88000 116000 141000
2026-04-24 11:00 12.04 50100 157000 (1984) 35200 (1990) 69400 37500 40500 44800 47500 59200 85400 88000 116000 141000
2026-04-24 10:00 11.95 49600 157000 (1984) 35200 (1990) 69400 37500 40500 44800 47500 59200 85400 88000 116000 141000
2026-04-24 09:00 11.87 49100 157000 (1984) 35200 (1990) 69400 37500 40500 44800 47500 59200 85400 88000 116000 141000
2026-04-24 08:00 11.80 48700 157000 (1984) 35200 (1990) 69400 37500 40500 44800 47500 59200 85400 88000 116000 141000
2026-04-24 07:00 11.75 48400 157000 (1984) 35200 (1990) 69400 37500 40500 44800 47500 59200 85400 88000 116000 141000
2026-04-24 06:00 11.70 48100 157000 (1984) 35200 (1990) 69400 37500 40500 44800 47500 59200 85400 88000 116000 141000
2026-04-24 05:00 11.67 47900 157000 (1984) 35200 (1990) 69400 37500 40500 44800 47500 59200 85400 88000 116000 141000
2026-04-24 04:00 11.65 47800 157000 (1984) 35200 (1990) 69400 37500 40500 44800 47500 59200 85400 88000 116000 141000
2026-04-24 03:00 11.66 47800 157000 (1984) 35200 (1990) 69400 37500 40500 44800 47500 59200 85400 88000 116000 141000
2026-04-24 02:00 11.65 47800 157000 (1984) 35200 (1990) 69400 37500 40500 44800 47500 59200 85400 88000 116000 141000
2026-04-24 01:00 11.61 47500 157000 (1984) 35200 (1990) 69400 37500 40500 44800 47500 59200 85400 88000 116000 141000
2026-04-24 00:00 11.63 47700 157000 (1984) 35200 (1990) 69400 37500 40500 44800 47500 59200 85400 88000 116000 141000
2026-04-23 23:00 11.62 47600 157000 (1984) 35200 (1990) 69400 37500 40500 44800 47500 59200 85400 88000 116000 141000
2026-04-23 22:00 11.57 47300 156000 (1984) 35200 (2004) 69600 37100 40200 44500 48100 60900 86900 89600 119000 139000
2026-04-23 21:00 11.58 47400 156000 (1984) 35200 (2004) 69600 37100 40200 44500 48100 60900 86900 89600 119000 139000
2026-04-23 20:00 11.58 47400 156000 (1984) 35200 (2004) 69600 37100 40200 44500 48100 60900 86900 89600 119000 139000
2026-04-23 19:00 11.58 47400 156000 (1984) 35200 (2004) 69600 37100 40200 44500 48100 60900 86900 89600 119000 139000
2026-04-23 18:00 11.61 47500 156000 (1984) 35200 (2004) 69600 37100 40200 44500 48100 60900 86900 89600 119000 139000
2026-04-23 17:00 11.61 47500 156000 (1984) 35200 (2004) 69600 37100 40200 44500 48100 60900 86900 89600 119000 139000
2026-04-23 16:00 11.62 47600 156000 (1984) 35200 (2004) 69600 37100 40200 44500 48100 60900 86900 89600 119000 139000
2026-04-23 15:00 11.62 47600 156000 (1984) 35200 (2004) 69600 37100 40200 44500 48100 60900 86900 89600 119000 139000
2026-04-23 14:00 11.62 47600 156000 (1984) 35200 (2004) 69600 37100 40200 44500 48100 60900 86900 89600 119000 139000
2026-04-23 13:00 11.60 47500 156000 (1984) 35200 (2004) 69600 37100 40200 44500 48100 60900 86900 89600 119000 139000
2026-04-23 12:00 11.67 47900 156000 (1984) 35200 (2004) 69600 37100 40200 44500 48100 60900 86900 89600 119000 139000
2026-04-23 11:00 11.67 47900 156000 (1984) 35200 (2004) 69600 37100 40200 44500 48100 60900 86900 89600 119000 139000
2026-04-23 10:00 11.65 47800 156000 (1984) 35200 (2004) 69600 37100 40200 44500 48100 60900 86900 89600 119000 139000
2026-04-23 09:00 11.66 47800 156000 (1984) 35200 (2004) 69600 37100 40200 44500 48100 60900 86900 89600 119000 139000
2026-04-23 08:00 11.68 48000 156000 (1984) 35200 (2004) 69600 37100 40200 44500 48100 60900 86900 89600 119000 139000
2026-04-23 07:00 11.70 48100 156000 (1984) 35200 (2004) 69600 37100 40200 44500 48100 60900 86900 89600 119000 139000
2026-04-23 06:00 11.72 48200 156000 (1984) 35200 (2004) 69600 37100 40200 44500 48100 60900 86900 89600 119000 139000
2026-04-23 05:00 11.71 48100 156000 (1984) 35200 (2004) 69600 37100 40200 44500 48100 60900 86900 89600 119000 139000
2026-04-23 04:00 11.71 48100 156000 (1984) 35200 (2004) 69600 37100 40200 44500 48100 60900 86900 89600 119000 139000
2026-04-23 03:00 11.73 48300 156000 (1984) 35200 (2004) 69600 37100 40200 44500 48100 60900 86900 89600 119000 139000
2026-04-23 02:00 11.74 48300 156000 (1984) 35200 (2004) 69600 37100 40200 44500 48100 60900 86900 89600 119000 139000
2026-04-23 01:00 11.75 48400 156000 (1984) 35200 (2004) 69600 37100 40200 44500 48100 60900 86900 89600 119000 139000
2026-04-23 00:00 11.77 48500 156000 (1984) 35200 (2004) 69600 37100 40200 44500 48100 60900 86900 89600 119000 139000
2026-04-22 23:00 11.79 48600 156000 (1984) 35200 (2004) 69600 37100 40200 44500 48100 60900 86900 89600 119000 139000
2026-04-22 22:00 11.82 48800 151000 (1984) 36600 (1990) 68900 38300 39400 44900 45600 62400 86100 90200 114000 135000
2026-04-22 21:00 11.83 48900 151000 (1984) 36600 (1990) 68900 38300 39400 44900 45600 62400 86100 90200 114000 135000
2026-04-22 20:00 11.85 49000 151000 (1984) 36600 (1990) 68900 38300 39400 44900 45600 62400 86100 90200 114000 135000
2026-04-22 19:00 11.86 49000 151000 (1984) 36600 (1990) 68900 38300 39400 44900 45600 62400 86100 90200 114000 135000
2026-04-22 18:00 11.84 48900 151000 (1984) 36600 (1990) 68900 38300 39400 44900 45600 62400 86100 90200 114000 135000
2026-04-22 17:00 11.88 49200 151000 (1984) 36600 (1990) 68900 38300 39400 44900 45600 62400 86100 90200 114000 135000
2026-04-22 16:00 11.89 49200 151000 (1984) 36600 (1990) 68900 38300 39400 44900 45600 62400 86100 90200 114000 135000
2026-04-22 15:00 11.87 49100 151000 (1984) 36600 (1990) 68900 38300 39400 44900 45600 62400 86100 90200 114000 135000
2026-04-22 14:00 11.92 49400 151000 (1984) 36600 (1990) 68900 38300 39400 44900 45600 62400 86100 90200 114000 135000
2026-04-22 13:00 11.94 49500 151000 (1984) 36600 (1990) 68900 38300 39400 44900 45600 62400 86100 90200 114000 135000
2026-04-22 12:00 11.95 49600 151000 (1984) 36600 (1990) 68900 38300 39400 44900 45600 62400 86100 90200 114000 135000
2026-04-22 11:00 11.96 49700 151000 (1984) 36600 (1990) 68900 38300 39400 44900 45600 62400 86100 90200 114000 135000
2026-04-22 10:00 11.97 49700 151000 (1984) 36600 (1990) 68900 38300 39400 44900 45600 62400 86100 90200 114000 135000
2026-04-22 09:00 11.98 49800 151000 (1984) 36600 (1990) 68900 38300 39400 44900 45600 62400 86100 90200 114000 135000
2026-04-22 08:00 11.98 49800 151000 (1984) 36600 (1990) 68900 38300 39400 44900 45600 62400 86100 90200 114000 135000
2026-04-22 07:00 11.99 49800 151000 (1984) 36600 (1990) 68900 38300 39400 44900 45600 62400 86100 90200 114000 135000
2026-04-22 06:00 12.00 49900 151000 (1984) 36600 (1990) 68900 38300 39400 44900 45600 62400 86100 90200 114000 135000
2026-04-22 05:00 12.01 50000 151000 (1984) 36600 (1990) 68900 38300 39400 44900 45600 62400 86100 90200 114000 135000
2026-04-22 04:00 12.02 50000 151000 (1984) 36600 (1990) 68900 38300 39400 44900 45600 62400 86100 90200 114000 135000
2026-04-22 03:00 12.03 50100 151000 (1984) 36600 (1990) 68900 38300 39400 44900 45600 62400 86100 90200 114000 135000
2026-04-22 02:00 12.04 50100 151000 (1984) 36600 (1990) 68900 38300 39400 44900 45600 62400 86100 90200 114000 135000
2026-04-22 01:00 12.05 50200 151000 (1984) 36600 (1990) 68900 38300 39400 44900 45600 62400 86100 90200 114000 135000
2026-04-22 00:00 12.05 50200 151000 (1984) 36600 (1990) 68900 38300 39400 44900 45600 62400 86100 90200 114000 135000
2026-04-21 23:00 12.04 50100 151000 (1984) 36600 (1990) 68900 38300 39400 44900 45600 62400 86100 90200 114000 135000
2026-04-21 22:00 12.08 50400 144000 (1997) 36400 (2004) 68600 38200 39400 45600 46300 59400 78700 89900 119000 137000
2026-04-21 21:00 12.03 50100 144000 (1997) 36400 (2004) 68600 38200 39400 45600 46300 59400 78700 89900 119000 137000
2026-04-21 20:00 12.11 50600 144000 (1997) 36400 (2004) 68600 38200 39400 45600 46300 59400 78700 89900 119000 137000
2026-04-21 19:00 12.15 50800 144000 (1997) 36400 (2004) 68600 38200 39400 45600 46300 59400 78700 89900 119000 137000
2026-04-21 18:00 12.12 50600 144000 (1997) 36400 (2004) 68600 38200 39400 45600 46300 59400 78700 89900 119000 137000
2026-04-21 17:00 12.13 50700 144000 (1997) 36400 (2004) 68600 38200 39400 45600 46300 59400 78700 89900 119000 137000
2026-04-21 16:00 12.16 50900 144000 (1997) 36400 (2004) 68600 38200 39400 45600 46300 59400 78700 89900 119000 137000
2026-04-21 15:00 12.19 51100 144000 (1997) 36400 (2004) 68600 38200 39400 45600 46300 59400 78700 89900 119000 137000
2026-04-21 14:00 12.18 51000 144000 (1997) 36400 (2004) 68600 38200 39400 45600 46300 59400 78700 89900 119000 137000
2026-04-21 13:00 12.17 51000 144000 (1997) 36400 (2004) 68600 38200 39400 45600 46300 59400 78700 89900 119000 137000
2026-04-21 12:00 12.18 51000 144000 (1997) 36400 (2004) 68600 38200 39400 45600 46300 59400 78700 89900 119000 137000
2026-04-21 11:00 12.25 51500 144000 (1997) 36400 (2004) 68600 38200 39400 45600 46300 59400 78700 89900 119000 137000
2026-04-21 10:00 12.21 51200 144000 (1997) 36400 (2004) 68600 38200 39400 45600 46300 59400 78700 89900 119000 137000
2026-04-21 09:00 12.26 51500 144000 (1997) 36400 (2004) 68600 38200 39400 45600 46300 59400 78700 89900 119000 137000
2026-04-21 08:00 12.31 51800 144000 (1997) 36400 (2004) 68600 38200 39400 45600 46300 59400 78700 89900 119000 137000
2026-04-21 07:00 12.33 52000 144000 (1997) 36400 (2004) 68600 38200 39400 45600 46300 59400 78700 89900 119000 137000
2026-04-21 06:00 12.34 52000 144000 (1997) 36400 (2004) 68600 38200 39400 45600 46300 59400 78700 89900 119000 137000
2026-04-21 05:00 12.36 52200 144000 (1997) 36400 (2004) 68600 38200 39400 45600 46300 59400 78700 89900 119000 137000
2026-04-21 04:00 12.37 52200 144000 (1997) 36400 (2004) 68600 38200 39400 45600 46300 59400 78700 89900 119000 137000
2026-04-21 03:00 12.39 52400 144000 (1997) 36400 (2004) 68600 38200 39400 45600 46300 59400 78700 89900 119000 137000
2026-04-21 02:00 12.41 52500 144000 (1997) 36400 (2004) 68600 38200 39400 45600 46300 59400 78700 89900 119000 137000
2026-04-21 01:00 12.43 52600 144000 (1997) 36400 (2004) 68600 38200 39400 45600 46300 59400 78700 89900 119000 137000
2026-04-21 00:00 12.45 52700 144000 (1997) 36400 (2004) 68600 38200 39400 45600 46300 59400 78700 89900 119000 137000
2026-04-20 23:00 12.48 52900 144000 (1997) 36400 (2004) 68600 38200 39400 45600 46300 59400 78700 89900 119000 137000
2026-04-20 22:00 12.49 53000 146000 (1978) 33700 (2004) 68800 37200 39200 43900 45800 58600 82200 90400 130000 140000
2026-04-20 21:00 12.50 53100 146000 (1978) 33700 (2004) 68800 37200 39200 43900 45800 58600 82200 90400 130000 140000
2026-04-20 20:00 12.52 53200 146000 (1978) 33700 (2004) 68800 37200 39200 43900 45800 58600 82200 90400 130000 140000
2026-04-20 19:00 12.54 53300 146000 (1978) 33700 (2004) 68800 37200 39200 43900 45800 58600 82200 90400 130000 140000
2026-04-20 18:00 12.56 53400 146000 (1978) 33700 (2004) 68800 37200 39200 43900 45800 58600 82200 90400 130000 140000
2026-04-20 17:00 12.59 53600 146000 (1978) 33700 (2004) 68800 37200 39200 43900 45800 58600 82200 90400 130000 140000
2026-04-20 16:00 12.62 53800 146000 (1978) 33700 (2004) 68800 37200 39200 43900 45800 58600 82200 90400 130000 140000
2026-04-20 15:00 12.61 53800 146000 (1978) 33700 (2004) 68800 37200 39200 43900 45800 58600 82200 90400 130000 140000
2026-04-20 14:00 12.67 54200 146000 (1978) 33700 (2004) 68800 37200 39200 43900 45800 58600 82200 90400 130000 140000
2026-04-20 13:00 12.69 54300 146000 (1978) 33700 (2004) 68800 37200 39200 43900 45800 58600 82200 90400 130000 140000
2026-04-20 12:00 12.72 54500 146000 (1978) 33700 (2004) 68800 37200 39200 43900 45800 58600 82200 90400 130000 140000
2026-04-20 11:00 12.72 54500 146000 (1978) 33700 (2004) 68800 37200 39200 43900 45800 58600 82200 90400 130000 140000
2026-04-20 10:00 12.71 54400 146000 (1978) 33700 (2004) 68800 37200 39200 43900 45800 58600 82200 90400 130000 140000
2026-04-20 09:00 12.70 54400 146000 (1978) 33700 (2004) 68800 37200 39200 43900 45800 58600 82200 90400 130000 140000
2026-04-20 08:00 12.78 54900 146000 (1978) 33700 (2004) 68800 37200 39200 43900 45800 58600 82200 90400 130000 140000
2026-04-20 07:00 12.84 55300 146000 (1978) 33700 (2004) 68800 37200 39200 43900 45800 58600 82200 90400 130000 140000
2026-04-20 06:00 12.86 55400 146000 (1978) 33700 (2004) 68800 37200 39200 43900 45800 58600 82200 90400 130000 140000
2026-04-20 05:00 12.90 55700 146000 (1978) 33700 (2004) 68800 37200 39200 43900 45800 58600 82200 90400 130000 140000
2026-04-20 04:00 12.94 56000 146000 (1978) 33700 (2004) 68800 37200 39200 43900 45800 58600 82200 90400 130000 140000
2026-04-20 03:00 12.96 56100 146000 (1978) 33700 (2004) 68800 37200 39200 43900 45800 58600 82200 90400 130000 140000
2026-04-20 02:00 12.95 56000 146000 (1978) 33700 (2004) 68800 37200 39200 43900 45800 58600 82200 90400 130000 140000
2026-04-20 01:00 12.94 56000 146000 (1978) 33700 (2004) 68800 37200 39200 43900 45800 58600 82200 90400 130000 140000
2026-04-20 00:00 12.96 56100 146000 (1978) 33700 (2004) 68800 37200 39200 43900 45800 58600 82200 90400 130000 140000
2026-04-19 23:00 13.00 56400 146000 (1978) 33700 (2004) 68800 37200 39200 43900 45800 58600 82200 90400 130000 140000
2026-04-19 22:00 13.09 57000 149000 (1978) 32400 (1964) 69900 36300 38800 42400 45000 60100 80900 91800 138000 147000
2026-04-19 21:00 13.16 57500 149000 (1978) 32400 (1964) 69900 36300 38800 42400 45000 60100 80900 91800 138000 147000
2026-04-19 20:00 13.21 57800 149000 (1978) 32400 (1964) 69900 36300 38800 42400 45000 60100 80900 91800 138000 147000
2026-04-19 19:00 13.27 58200 149000 (1978) 32400 (1964) 69900 36300 38800 42400 45000 60100 80900 91800 138000 147000
2026-04-19 18:00 13.32 58600 149000 (1978) 32400 (1964) 69900 36300 38800 42400 45000 60100 80900 91800 138000 147000
2026-04-19 17:00 13.33 58600 149000 (1978) 32400 (1964) 69900 36300 38800 42400 45000 60100 80900 91800 138000 147000
2026-04-19 16:00 13.43 59300 149000 (1978) 32400 (1964) 69900 36300 38800 42400 45000 60100 80900 91800 138000 147000
2026-04-19 15:00 13.43 59300 149000 (1978) 32400 (1964) 69900 36300 38800 42400 45000 60100 80900 91800 138000 147000
2026-04-19 14:00 13.50 59800 149000 (1978) 32400 (1964) 69900 36300 38800 42400 45000 60100 80900 91800 138000 147000
2026-04-19 13:00 13.51 59900 149000 (1978) 32400 (1964) 69900 36300 38800 42400 45000 60100 80900 91800 138000 147000
2026-04-19 12:00 13.60 60500 149000 (1978) 32400 (1964) 69900 36300 38800 42400 45000 60100 80900 91800 138000 147000
2026-04-19 11:00 13.68 61100 149000 (1978) 32400 (1964) 69900 36300 38800 42400 45000 60100 80900 91800 138000 147000
2026-04-19 10:00 13.76 61700 149000 (1978) 32400 (1964) 69900 36300 38800 42400 45000 60100 80900 91800 138000 147000
2026-04-19 09:00 13.82 62100 149000 (1978) 32400 (1964) 69900 36300 38800 42400 45000 60100 80900 91800 138000 147000
2026-04-19 08:00 13.90 62700 149000 (1978) 32400 (1964) 69900 36300 38800 42400 45000 60100 80900 91800 138000 147000
2026-04-19 07:00 13.97 63200 149000 (1978) 32400 (1964) 69900 36300 38800 42400 45000 60100 80900 91800 138000 147000
2026-04-19 06:00 14.03 63700 149000 (1978) 32400 (1964) 69900 36300 38800 42400 45000 60100 80900 91800 138000 147000
2026-04-19 05:00 14.08 64000 149000 (1978) 32400 (1964) 69900 36300 38800 42400 45000 60100 80900 91800 138000 147000
2026-04-19 04:00 14.14 64500 149000 (1978) 32400 (1964) 69900 36300 38800 42400 45000 60100 80900 91800 138000 147000
2026-04-19 03:00 14.20 64900 149000 (1978) 32400 (1964) 69900 36300 38800 42400 45000 60100 80900 91800 138000 147000
2026-04-19 02:00 14.27 65400 149000 (1978) 32400 (1964) 69900 36300 38800 42400 45000 60100 80900 91800 138000 147000
2026-04-19 01:00 14.35 66100 149000 (1978) 32400 (1964) 69900 36300 38800 42400 45000 60100 80900 91800 138000 147000
2026-04-19 00:00 14.43 66700 149000 (1978) 32400 (1964) 69900 36300 38800 42400 45000 60100 80900 91800 138000 147000
2026-04-18 23:00 14.48 67000 149000 (1978) 32400 (1964) 69900 36300 38800 42400 45000 60100 80900 91800 138000 147000
2026-04-18 22:00 14.54 67500 177000 (1973) 34700 (2004) 70300 36400 38400 42400 43200 57700 88000 95400 137000 156000
2026-04-18 21:00 14.59 67900 177000 (1973) 34700 (2004) 70300 36400 38400 42400 43200 57700 88000 95400 137000 156000
2026-04-18 20:00 14.62 68100 177000 (1973) 34700 (2004) 70300 36400 38400 42400 43200 57700 88000 95400 137000 156000
2026-04-18 19:00 14.66 68400 177000 (1973) 34700 (2004) 70300 36400 38400 42400 43200 57700 88000 95400 137000 156000
2026-04-18 18:00 14.67 68500 177000 (1973) 34700 (2004) 70300 36400 38400 42400 43200 57700 88000 95400 137000 156000
2026-04-18 17:00 14.68 68600 177000 (1973) 34700 (2004) 70300 36400 38400 42400 43200 57700 88000 95400 137000 156000
2026-04-18 16:00 14.66 68400 177000 (1973) 34700 (2004) 70300 36400 38400 42400 43200 57700 88000 95400 137000 156000
2026-04-18 15:00 14.62 68100 177000 (1973) 34700 (2004) 70300 36400 38400 42400 43200 57700 88000 95400 137000 156000
2026-04-18 14:00 14.59 67900 177000 (1973) 34700 (2004) 70300 36400 38400 42400 43200 57700 88000 95400 137000 156000
2026-04-18 13:00 14.53 67400 177000 (1973) 34700 (2004) 70300 36400 38400 42400 43200 57700 88000 95400 137000 156000
2026-04-18 12:00 14.48 67000 177000 (1973) 34700 (2004) 70300 36400 38400 42400 43200 57700 88000 95400 137000 156000
2026-04-18 11:00 14.39 66400 177000 (1973) 34700 (2004) 70300 36400 38400 42400 43200 57700 88000 95400 137000 156000
2026-04-18 10:00 14.32 65800 177000 (1973) 34700 (2004) 70300 36400 38400 42400 43200 57700 88000 95400 137000 156000
2026-04-18 09:00 14.20 64900 177000 (1973) 34700 (2004) 70300 36400 38400 42400 43200 57700 88000 95400 137000 156000
2026-04-18 08:00 14.10 64200 177000 (1973) 34700 (2004) 70300 36400 38400 42400 43200 57700 88000 95400 137000 156000
2026-04-18 07:00 13.95 63100 177000 (1973) 34700 (2004) 70300 36400 38400 42400 43200 57700 88000 95400 137000 156000
2026-04-18 06:00 13.80 62000 177000 (1973) 34700 (2004) 70300 36400 38400 42400 43200 57700 88000 95400 137000 156000
2026-04-18 05:00 13.65 60900 177000 (1973) 34700 (2004) 70300 36400 38400 42400 43200 57700 88000 95400 137000 156000
2026-04-18 04:00 13.44 59400 177000 (1973) 34700 (2004) 70300 36400 38400 42400 43200 57700 88000 95400 137000 156000
2026-04-18 03:00 13.37 58900 177000 (1973) 34700 (2004) 70300 36400 38400 42400 43200 57700 88000 95400 137000 156000
2026-04-18 02:00 13.23 57900 177000 (1973) 34700 (2004) 70300 36400 38400 42400 43200 57700 88000 95400 137000 156000
2026-04-18 01:00 13.12 57200 177000 (1973) 34700 (2004) 70300 36400 38400 42400 43200 57700 88000 95400 137000 156000
2026-04-18 00:00 13.03 56600 177000 (1973) 34700 (2004) 70300 36400 38400 42400 43200 57700 88000 95400 137000 156000
2026-04-17 23:00 12.95 56000 177000 (1973) 34700 (2004) 70300 36400 38400 42400 43200 57700 88000 95400 137000 156000
2026-04-17 22:00 12.86 55400 192000 (1999) 35100 (2004) 71000 37900 39800 42300 44500 58700 86900 91800 131000 160000
2026-04-17 21:00 12.80 55000 192000 (1999) 35100 (2004) 71000 37900 39800 42300 44500 58700 86900 91800 131000 160000
2026-04-17 20:00 12.77 54800 192000 (1999) 35100 (2004) 71000 37900 39800 42300 44500 58700 86900 91800 131000 160000
2026-04-17 19:00 12.70 54400 192000 (1999) 35100 (2004) 71000 37900 39800 42300 44500 58700 86900 91800 131000 160000
2026-04-17 18:00 12.49 53000 192000 (1999) 35100 (2004) 71000 37900 39800 42300 44500 58700 86900 91800 131000 160000
2026-04-17 17:00 12.54 53300 192000 (1999) 35100 (2004) 71000 37900 39800 42300 44500 58700 86900 91800 131000 160000
2026-04-17 16:00 12.46 52800 192000 (1999) 35100 (2004) 71000 37900 39800 42300 44500 58700 86900 91800 131000 160000
2026-04-17 15:00 12.45 52700 192000 (1999) 35100 (2004) 71000 37900 39800 42300 44500 58700 86900 91800 131000 160000
2026-04-17 14:00 12.43 52600 192000 (1999) 35100 (2004) 71000 37900 39800 42300 44500 58700 86900 91800 131000 160000
2026-04-17 13:00 12.40 52400 192000 (1999) 35100 (2004) 71000 37900 39800 42300 44500 58700 86900 91800 131000 160000
2026-04-17 12:00 12.38 52300 192000 (1999) 35100 (2004) 71000 37900 39800 42300 44500 58700 86900 91800 131000 160000
2026-04-17 11:00 12.38 52300 192000 (1999) 35100 (2004) 71000 37900 39800 42300 44500 58700 86900 91800 131000 160000
2026-04-17 10:00 12.36 52200 192000 (1999) 35100 (2004) 71000 37900 39800 42300 44500 58700 86900 91800 131000 160000
2026-04-17 09:00 12.38 52300 192000 (1999) 35100 (2004) 71000 37900 39800 42300 44500 58700 86900 91800 131000 160000
2026-04-17 08:00 12.42 52500 192000 (1999) 35100 (2004) 71000 37900 39800 42300 44500 58700 86900 91800 131000 160000
2026-04-17 07:00 12.43 52600 192000 (1999) 35100 (2004) 71000 37900 39800 42300 44500 58700 86900 91800 131000 160000
2026-04-17 06:00 12.43 52600 192000 (1999) 35100 (2004) 71000 37900 39800 42300 44500 58700 86900 91800 131000 160000
2026-04-17 05:00 12.46 52800 192000 (1999) 35100 (2004) 71000 37900 39800 42300 44500 58700 86900 91800 131000 160000
2026-04-17 04:00 12.48 52900 192000 (1999) 35100 (2004) 71000 37900 39800 42300 44500 58700 86900 91800 131000 160000
2026-04-17 03:00 12.48 52900 192000 (1999) 35100 (2004) 71000 37900 39800 42300 44500 58700 86900 91800 131000 160000
2026-04-17 02:00 12.50 53100 192000 (1999) 35100 (2004) 71000 37900 39800 42300 44500 58700 86900 91800 131000 160000
2026-04-17 01:00 12.52 53200 192000 (1999) 35100 (2004) 71000 37900 39800 42300 44500 58700 86900 91800 131000 160000
2026-04-17 00:00 12.55 53400 192000 (1999) 35100 (2004) 71000 37900 39800 42300 44500 58700 86900 91800 131000 160000
2026-04-16 23:00 12.58 53600 192000 (1999) 35100 (2004) 71000 37900 39800 42300 44500 58700 86900 91800 131000 160000
2026-04-16 22:00 12.61 53800 183000 (1987) 34400 (2003) 70300 37800 39900 43900 45700 61300 84500 93300 128000 152000
2026-04-16 21:00 12.63 53900 183000 (1987) 34400 (2003) 70300 37800 39900 43900 45700 61300 84500 93300 128000 152000
2026-04-16 20:00 12.65 54000 183000 (1987) 34400 (2003) 70300 37800 39900 43900 45700 61300 84500 93300 128000 152000
2026-04-16 19:00 12.66 54100 183000 (1987) 34400 (2003) 70300 37800 39900 43900 45700 61300 84500 93300 128000 152000
2026-04-16 18:00 12.68 54200 183000 (1987) 34400 (2003) 70300 37800 39900 43900 45700 61300 84500 93300 128000 152000
2026-04-16 17:00 12.68 54200 183000 (1987) 34400 (2003) 70300 37800 39900 43900 45700 61300 84500 93300 128000 152000
2026-04-16 16:00 12.68 54200 183000 (1987) 34400 (2003) 70300 37800 39900 43900 45700 61300 84500 93300 128000 152000
2026-04-16 15:00 12.69 54300 183000 (1987) 34400 (2003) 70300 37800 39900 43900 45700 61300 84500 93300 128000 152000
2026-04-16 14:00 12.69 54300 183000 (1987) 34400 (2003) 70300 37800 39900 43900 45700 61300 84500 93300 128000 152000
2026-04-16 13:00 12.71 54400 183000 (1987) 34400 (2003) 70300 37800 39900 43900 45700 61300 84500 93300 128000 152000
2026-04-16 12:00 12.71 54400 183000 (1987) 34400 (2003) 70300 37800 39900 43900 45700 61300 84500 93300 128000 152000
2026-04-16 11:00 12.72 54500 183000 (1987) 34400 (2003) 70300 37800 39900 43900 45700 61300 84500 93300 128000 152000
2026-04-16 10:00 12.73 54600 183000 (1987) 34400 (2003) 70300 37800 39900 43900 45700 61300 84500 93300 128000 152000
2026-04-16 09:00 12.74 54600 183000 (1987) 34400 (2003) 70300 37800 39900 43900 45700 61300 84500 93300 128000 152000
2026-04-16 08:00 12.74 54600 183000 (1987) 34400 (2003) 70300 37800 39900 43900 45700 61300 84500 93300 128000 152000
2026-04-16 07:00 12.78 54900 183000 (1987) 34400 (2003) 70300 37800 39900 43900 45700 61300 84500 93300 128000 152000
2026-04-16 06:00 12.81 55100 183000 (1987) 34400 (2003) 70300 37800 39900 43900 45700 61300 84500 93300 128000 152000
2026-04-16 05:00 12.85 55400 183000 (1987) 34400 (2003) 70300 37800 39900 43900 45700 61300 84500 93300 128000 152000
2026-04-16 04:00 12.87 55500 183000 (1987) 34400 (2003) 70300 37800 39900 43900 45700 61300 84500 93300 128000 152000
2026-04-16 03:00 12.90 55700 183000 (1987) 34400 (2003) 70300 37800 39900 43900 45700 61300 84500 93300 128000 152000
2026-04-16 02:00 12.94 56000 183000 (1987) 34400 (2003) 70300 37800 39900 43900 45700 61300 84500 93300 128000 152000
2026-04-16 01:00 12.99 56300 183000 (1987) 34400 (2003) 70300 37800 39900 43900 45700 61300 84500 93300 128000 152000
2026-04-16 00:00 13.03 56600 183000 (1987) 34400 (2003) 70300 37800 39900 43900 45700 61300 84500 93300 128000 152000
2026-04-15 23:00 13.07 56800 183000 (1987) 34400 (2003) 70300 37800 39900 43900 45700 61300 84500 93300 128000 152000
2026-04-15 22:00 13.11 57100 155000 (1997) 34500 (2003) 69200 37300 40100 43300 45300 58900 84700 95500 118000 145000
2026-04-15 21:00 13.16 57500 155000 (1997) 34500 (2003) 69200 37300 40100 43300 45300 58900 84700 95500 118000 145000
2026-04-15 20:00 13.21 57800 155000 (1997) 34500 (2003) 69200 37300 40100 43300 45300 58900 84700 95500 118000 145000
2026-04-15 19:00 13.26 58100 155000 (1997) 34500 (2003) 69200 37300 40100 43300 45300 58900 84700 95500 118000 145000
2026-04-15 18:00 13.26 58100 155000 (1997) 34500 (2003) 69200 37300 40100 43300 45300 58900 84700 95500 118000 145000
2026-04-15 17:00 13.34 58700 155000 (1997) 34500 (2003) 69200 37300 40100 43300 45300 58900 84700 95500 118000 145000
2026-04-15 16:00 13.39 59000 155000 (1997) 34500 (2003) 69200 37300 40100 43300 45300 58900 84700 95500 118000 145000
2026-04-15 15:00 13.45 59500 155000 (1997) 34500 (2003) 69200 37300 40100 43300 45300 58900 84700 95500 118000 145000
2026-04-15 14:00 13.51 59900 155000 (1997) 34500 (2003) 69200 37300 40100 43300 45300 58900 84700 95500 118000 145000
2026-04-15 13:00 13.56 60200 155000 (1997) 34500 (2003) 69200 37300 40100 43300 45300 58900 84700 95500 118000 145000
2026-04-15 12:00 13.62 60700 155000 (1997) 34500 (2003) 69200 37300 40100 43300 45300 58900 84700 95500 118000 145000
2026-04-15 11:00 13.69 61200 155000 (1997) 34500 (2003) 69200 37300 40100 43300 45300 58900 84700 95500 118000 145000
2026-04-15 10:00 13.76 61700 155000 (1997) 34500 (2003) 69200 37300 40100 43300 45300 58900 84700 95500 118000 145000
2026-04-15 09:00 13.80 62000 155000 (1997) 34500 (2003) 69200 37300 40100 43300 45300 58900 84700 95500 118000 145000
2026-04-15 08:00 13.87 62500 155000 (1997) 34500 (2003) 69200 37300 40100 43300 45300 58900 84700 95500 118000 145000
2026-04-15 07:00 13.92 62800 155000 (1997) 34500 (2003) 69200 37300 40100 43300 45300 58900 84700 95500 118000 145000
2026-04-15 06:00 13.96 63100 155000 (1997) 34500 (2003) 69200 37300 40100 43300 45300 58900 84700 95500 118000 145000
2026-04-15 05:00 14.01 63500 155000 (1997) 34500 (2003) 69200 37300 40100 43300 45300 58900 84700 95500 118000 145000
2026-04-15 04:00 14.06 63900 155000 (1997) 34500 (2003) 69200 37300 40100 43300 45300 58900 84700 95500 118000 145000
2026-04-15 03:00 14.11 64200 155000 (1997) 34500 (2003) 69200 37300 40100 43300 45300 58900 84700 95500 118000 145000
2026-04-15 02:00 14.16 64600 155000 (1997) 34500 (2003) 69200 37300 40100 43300 45300 58900 84700 95500 118000 145000
2026-04-15 01:00 14.19 64800 155000 (1997) 34500 (2003) 69200 37300 40100 43300 45300 58900 84700 95500 118000 145000
2026-04-15 00:00 14.24 65200 155000 (1997) 34500 (2003) 69200 37300 40100 43300 45300 58900 84700 95500 118000 145000
2026-04-14 23:00 14.27 65400 155000 (1997) 34500 (2003) 69200 37300 40100 43300 45300 58900 84700 95500 118000 145000
2026-04-14 22:00 14.31 65700 170000 (1997) 34400 (2003) 69900 35800 38500 43800 45400 58600 90900 95300 115000 149000
2026-04-14 21:00 14.36 66100 170000 (1997) 34400 (2003) 69900 35800 38500 43800 45400 58600 90900 95300 115000 149000
2026-04-14 20:00 14.41 66500 170000 (1997) 34400 (2003) 69900 35800 38500 43800 45400 58600 90900 95300 115000 149000
2026-04-14 19:00 14.45 66800 170000 (1997) 34400 (2003) 69900 35800 38500 43800 45400 58600 90900 95300 115000 149000
2026-04-14 18:00 14.46 66900 170000 (1997) 34400 (2003) 69900 35800 38500 43800 45400 58600 90900 95300 115000 149000
2026-04-14 17:00 14.55 67600 170000 (1997) 34400 (2003) 69900 35800 38500 43800 45400 58600 90900 95300 115000 149000
2026-04-14 16:00 14.59 67100 170000 (1997) 34400 (2003) 69900 35800 38500 43800 45400 58600 90900 95300 115000 149000
2026-04-14 15:00 14.61 67300 170000 (1997) 34400 (2003) 69900 35800 38500 43800 45400 58600 90900 95300 115000 149000
2026-04-14 14:00 14.66 67700 170000 (1997) 34400 (2003) 69900 35800 38500 43800 45400 58600 90900 95300 115000 149000
2026-04-14 13:00 14.67 67700 170000 (1997) 34400 (2003) 69900 35800 38500 43800 45400 58600 90900 95300 115000 149000
2026-04-14 12:00 14.71 68100 170000 (1997) 34400 (2003) 69900 35800 38500 43800 45400 58600 90900 95300 115000 149000
2026-04-14 10:00 14.84 69100 170000 (1997) 34400 (2003) 69900 35800 38500 43800 45400 58600 90900 95300 115000 149000
2026-04-14 09:00 14.88 69400 170000 (1997) 34400 (2003) 69900 35800 38500 43800 45400 58600 90900 95300 115000 149000
2026-04-14 08:00 14.88 69400 170000 (1997) 34400 (2003) 69900 35800 38500 43800 45400 58600 90900 95300 115000 149000
2026-04-14 07:00 14.89 69500 170000 (1997) 34400 (2003) 69900 35800 38500 43800 45400 58600 90900 95300 115000 149000
2026-04-14 06:00 14.89 69500 170000 (1997) 34400 (2003) 69900 35800 38500 43800 45400 58600 90900 95300 115000 149000
2026-04-14 05:00 14.89 69500 170000 (1997) 34400 (2003) 69900 35800 38500 43800 45400 58600 90900 95300 115000 149000
2026-04-14 04:00 14.88 69400 170000 (1997) 34400 (2003) 69900 35800 38500 43800 45400 58600 90900 95300 115000 149000
2026-04-14 03:00 14.89 69500 170000 (1997) 34400 (2003) 69900 35800 38500 43800 45400 58600 90900 95300 115000 149000
2026-04-14 02:00 14.89 69500 170000 (1997) 34400 (2003) 69900 35800 38500 43800 45400 58600 90900 95300 115000 149000
2026-04-14 01:00 14.87 69300 170000 (1997) 34400 (2003) 69900 35800 38500 43800 45400 58600 90900 95300 115000 149000
2026-04-14 00:00 14.85 69100 170000 (1997) 34400 (2003) 69900 35800 38500 43800 45400 58600 90900 95300 115000 149000
2026-04-13 23:00 14.74 68300 170000 (1997) 34400 (2003) 69900 35800 38500 43800 45400 58600 90900 95300 115000 149000
2026-04-13 22:00 14.78 68600 185000 (1997) 33900 (1991) 70400 35200 37700 42300 45900 55000 88600 101000 118000 138000
2026-04-13 21:00 14.72 68100 185000 (1997) 33900 (1991) 70400 35200 37700 42300 45900 55000 88600 101000 118000 138000
2026-04-13 20:00 14.65 67600 185000 (1997) 33900 (1991) 70400 35200 37700 42300 45900 55000 88600 101000 118000 138000
2026-04-13 19:00 14.57 67000 185000 (1997) 33900 (1991) 70400 35200 37700 42300 45900 55000 88600 101000 118000 138000
2026-04-13 18:00 14.49 66400 185000 (1997) 33900 (1991) 70400 35200 37700 42300 45900 55000 88600 101000 118000 138000
2026-04-13 17:00 14.44 66000 185000 (1997) 33900 (1991) 70400 35200 37700 42300 45900 55000 88600 101000 118000 138000
2026-04-13 16:00 14.34 65200 185000 (1997) 33900 (1991) 70400 35200 37700 42300 45900 55000 88600 101000 118000 138000
2026-04-13 15:00 14.26 64600 185000 (1997) 33900 (1991) 70400 35200 37700 42300 45900 55000 88600 101000 118000 138000
2026-04-13 14:00 14.13 63700 185000 (1997) 33900 (1991) 70400 35200 37700 42300 45900 55000 88600 101000 118000 138000
2026-04-13 13:00 14.03 62900 185000 (1997) 33900 (1991) 70400 35200 37700 42300 45900 55000 88600 101000 118000 138000
2026-04-13 12:00 13.93 62200 185000 (1997) 33900 (1991) 70400 35200 37700 42300 45900 55000 88600 101000 118000 138000
2026-04-13 11:00 13.79 61200 185000 (1997) 33900 (1991) 70400 35200 37700 42300 45900 55000 88600 101000 118000 138000
2026-04-13 10:00 13.65 60200 185000 (1997) 33900 (1991) 70400 35200 37700 42300 45900 55000 88600 101000 118000 138000
2026-04-13 09:00 13.55 59500 185000 (1997) 33900 (1991) 70400 35200 37700 42300 45900 55000 88600 101000 118000 138000
2026-04-13 08:00 13.44 58700 185000 (1997) 33900 (1991) 70400 35200 37700 42300 45900 55000 88600 101000 118000 138000
2026-04-13 07:00 13.33 57900 185000 (1997) 33900 (1991) 70400 35200 37700 42300 45900 55000 88600 101000 118000 138000
2026-04-13 06:00 13.23 57200 185000 (1997) 33900 (1991) 70400 35200 37700 42300 45900 55000 88600 101000 118000 138000
2026-04-13 05:00 13.12 56500 185000 (1997) 33900 (1991) 70400 35200 37700 42300 45900 55000 88600 101000 118000 138000
2026-04-13 04:00 13.03 55900 185000 (1997) 33900 (1991) 70400 35200 37700 42300 45900 55000 88600 101000 118000 138000
2026-04-13 03:00 12.95 55400 185000 (1997) 33900 (1991) 70400 35200 37700 42300 45900 55000 88600 101000 118000 138000
2026-04-13 02:00 12.84 54600 185000 (1997) 33900 (1991) 70400 35200 37700 42300 45900 55000 88600 101000 118000 138000
2026-04-13 01:00 12.76 54100 185000 (1997) 33900 (1991) 70400 35200 37700 42300 45900 55000 88600 101000 118000 138000
2026-04-13 00:00 12.67 53500 185000 (1997) 33900 (1991) 70400 35200 37700 42300 45900 55000 88600 101000 118000 138000
2026-04-12 23:00 12.60 53100 185000 (1997) 33900 (1991) 70400 35200 37700 42300 45900 55000 88600 101000 118000 138000
2026-04-12 22:00 12.53 52600 203000 (1997) 32900 (1991) 70900 35900 37800 41200 43600 54600 91000 95200 124000 148000
2026-04-12 21:00 12.47 52200 203000 (1997) 32900 (1991) 70900 35900 37800 41200 43600 54600 91000 95200 124000 148000
2026-04-12 20:00 12.42 51900 203000 (1997) 32900 (1991) 70900 35900 37800 41200 43600 54600 91000 95200 124000 148000
2026-04-12 19:00 12.36 51500 203000 (1997) 32900 (1991) 70900 35900 37800 41200 43600 54600 91000 95200 124000 148000
2026-04-12 18:00 12.33 51300 203000 (1997) 32900 (1991) 70900 35900 37800 41200 43600 54600 91000 95200 124000 148000
2026-04-12 17:00 12.30 51100 203000 (1997) 32900 (1991) 70900 35900 37800 41200 43600 54600 91000 95200 124000 148000
2026-04-12 16:00 12.26 50900 203000 (1997) 32900 (1991) 70900 35900 37800 41200 43600 54600 91000 95200 124000 148000
2026-04-12 15:00 12.23 50700 203000 (1997) 32900 (1991) 70900 35900 37800 41200 43600 54600 91000 95200 124000 148000
2026-04-12 14:00 12.20 50500 203000 (1997) 32900 (1991) 70900 35900 37800 41200 43600 54600 91000 95200 124000 148000
2026-04-12 13:00 12.18 50400 203000 (1997) 32900 (1991) 70900 35900 37800 41200 43600 54600 91000 95200 124000 148000
2026-04-12 12:00 12.16 50300 203000 (1997) 32900 (1991) 70900 35900 37800 41200 43600 54600 91000 95200 124000 148000
2026-04-12 11:00 12.16 50300 203000 (1997) 32900 (1991) 70900 35900 37800 41200 43600 54600 91000 95200 124000 148000
2026-04-12 10:00 12.08 49800 203000 (1997) 32900 (1991) 70900 35900 37800 41200 43600 54600 91000 95200 124000 148000
2026-04-12 09:00 12.15 50200 203000 (1997) 32900 (1991) 70900 35900 37800 41200 43600 54600 91000 95200 124000 148000
2026-04-12 08:00 12.16 50300 203000 (1997) 32900 (1991) 70900 35900 37800 41200 43600 54600 91000 95200 124000 148000
2026-04-12 07:00 12.19 50500 203000 (1997) 32900 (1991) 70900 35900 37800 41200 43600 54600 91000 95200 124000 148000
2026-04-12 06:00 12.21 50600 203000 (1997) 32900 (1991) 70900 35900 37800 41200 43600 54600 91000 95200 124000 148000
2026-04-12 05:00 12.23 50700 203000 (1997) 32900 (1991) 70900 35900 37800 41200 43600 54600 91000 95200 124000 148000
2026-04-12 04:00 12.25 50800 203000 (1997) 32900 (1991) 70900 35900 37800 41200 43600 54600 91000 95200 124000 148000
2026-04-12 03:00 12.29 51100 203000 (1997) 32900 (1991) 70900 35900 37800 41200 43600 54600 91000 95200 124000 148000
2026-04-12 02:00 12.32 51300 203000 (1997) 32900 (1991) 70900 35900 37800 41200 43600 54600 91000 95200 124000 148000
2026-04-12 01:00 12.36 51500 203000 (1997) 32900 (1991) 70900 35900 37800 41200 43600 54600 91000 95200 124000 148000
2026-04-12 00:00 12.39 51700 203000 (1997) 32900 (1991) 70900 35900 37800 41200 43600 54600 91000 95200 124000 148000
2026-04-11 23:00 12.44 52000 203000 (1997) 32900 (1991) 70900 35900 37800 41200 43600 54600 91000 95200 124000 148000
2026-04-11 22:00 12.47 52200 188000 (1960) 32500 (1991) 71400 36100 37700 41300 43900 56600 93200 102000 131000 140000
2026-04-11 21:00 12.52 52500 188000 (1960) 32500 (1991) 71400 36100 37700 41300 43900 56600 93200 102000 131000 140000
2026-04-11 20:00 12.54 52700 188000 (1960) 32500 (1991) 71400 36100 37700 41300 43900 56600 93200 102000 131000 140000
2026-04-11 19:00 12.53 52600 188000 (1960) 32500 (1991) 71400 36100 37700 41300 43900 56600 93200 102000 131000 140000
2026-04-11 18:00 12.60 53100 188000 (1960) 32500 (1991) 71400 36100 37700 41300 43900 56600 93200 102000 131000 140000
2026-04-11 17:00 12.67 53500 188000 (1960) 32500 (1991) 71400 36100 37700 41300 43900 56600 93200 102000 131000 140000
2026-04-11 16:00 12.64 53300 188000 (1960) 32500 (1991) 71400 36100 37700 41300 43900 56600 93200 102000 131000 140000
2026-04-11 15:00 12.64 53300 188000 (1960) 32500 (1991) 71400 36100 37700 41300 43900 56600 93200 102000 131000 140000
2026-04-11 14:00 12.67 53500 188000 (1960) 32500 (1991) 71400 36100 37700 41300 43900 56600 93200 102000 131000 140000
2026-04-11 13:00 12.68 53600 188000 (1960) 32500 (1991) 71400 36100 37700 41300 43900 56600 93200 102000 131000 140000
2026-04-11 12:00 12.70 53700 188000 (1960) 32500 (1991) 71400 36100 37700 41300 43900 56600 93200 102000 131000 140000
2026-04-11 11:00 12.70 53700 188000 (1960) 32500 (1991) 71400 36100 37700 41300 43900 56600 93200 102000 131000 140000
2026-04-11 10:00 12.72 53800 188000 (1960) 32500 (1991) 71400 36100 37700 41300 43900 56600 93200 102000 131000 140000
2026-04-11 09:00 12.65 53400 188000 (1960) 32500 (1991) 71400 36100 37700 41300 43900 56600 93200 102000 131000 140000
2026-04-11 08:00 12.63 53300 188000 (1960) 32500 (1991) 71400 36100 37700 41300 43900 56600 93200 102000 131000 140000
2026-04-11 07:00 12.62 53200 188000 (1960) 32500 (1991) 71400 36100 37700 41300 43900 56600 93200 102000 131000 140000
2026-04-11 06:00 12.61 53100 188000 (1960) 32500 (1991) 71400 36100 37700 41300 43900 56600 93200 102000 131000 140000
2026-04-11 05:00 12.56 52800 188000 (1960) 32500 (1991) 71400 36100 37700 41300 43900 56600 93200 102000 131000 140000
2026-04-11 04:00 12.50 52400 188000 (1960) 32500 (1991) 71400 36100 37700 41300 43900 56600 93200 102000 131000 140000
2026-04-11 03:00 12.40 51800 188000 (1960) 32500 (1991) 71400 36100 37700 41300 43900 56600 93200 102000 131000 140000
2026-04-11 02:00 12.34 51400 188000 (1960) 32500 (1991) 71400 36100 37700 41300 43900 56600 93200 102000 131000 140000
2026-04-11 01:00 12.21 50600 188000 (1960) 32500 (1991) 71400 36100 37700 41300 43900 56600 93200 102000 131000 140000
2026-04-11 00:00 12.14 50100 188000 (1960) 32500 (1991) 71400 36100 37700 41300 43900 56600 93200 102000 131000 140000
2026-04-10 23:00 12.01 49300 188000 (1960) 32500 (1991) 71400 36100 37700 41300 43900 56600 93200 102000 131000 140000
2026-04-10 22:00 11.90 48700 205000 (1960) 32100 (1991) 70000 36500 37700 41100 42200 54700 93800 100000 126000 140000
2026-04-10 21:00 11.78 48000 205000 (1960) 32100 (1991) 70000 36500 37700 41100 42200 54700 93800 100000 126000 140000
2026-04-10 20:00 11.60 46900 205000 (1960) 32100 (1991) 70000 36500 37700 41100 42200 54700 93800 100000 126000 140000
2026-04-10 19:00 11.48 46200 205000 (1960) 32100 (1991) 70000 36500 37700 41100 42200 54700 93800 100000 126000 140000
2026-04-10 18:00 11.38 45600 205000 (1960) 32100 (1991) 70000 36500 37700 41100 42200 54700 93800 100000 126000 140000
2026-04-10 17:00 11.32 45300 205000 (1960) 32100 (1991) 70000 36500 37700 41100 42200 54700 93800 100000 126000 140000
2026-04-10 16:00 11.24 44800 205000 (1960) 32100 (1991) 70000 36500 37700 41100 42200 54700 93800 100000 126000 140000
2026-04-10 15:00 11.25 44900 205000 (1960) 32100 (1991) 70000 36500 37700 41100 42200 54700 93800 100000 126000 140000
2026-04-10 14:00 11.19 44500 205000 (1960) 32100 (1991) 70000 36500 37700 41100 42200 54700 93800 100000 126000 140000
2026-04-10 13:00 11.12 44100 205000 (1960) 32100 (1991) 70000 36500 37700 41100 42200 54700 93800 100000 126000 140000
2026-04-10 12:00 11.10 44000 205000 (1960) 32100 (1991) 70000 36500 37700 41100 42200 54700 93800 100000 126000 140000
2026-04-10 11:00 11.12 44100 205000 (1960) 32100 (1991) 70000 36500 37700 41100 42200 54700 93800 100000 126000 140000
2026-04-10 10:00 11.10 44000 205000 (1960) 32100 (1991) 70000 36500 37700 41100 42200 54700 93800 100000 126000 140000
2026-04-10 09:00 11.11 44100 205000 (1960) 32100 (1991) 70000 36500 37700 41100 42200 54700 93800 100000 126000 140000
2026-04-10 08:00 11.11 44100 205000 (1960) 32100 (1991) 70000 36500 37700 41100 42200 54700 93800 100000 126000 140000
2026-04-10 07:00 11.11 44100 205000 (1960) 32100 (1991) 70000 36500 37700 41100 42200 54700 93800 100000 126000 140000
2026-04-10 06:00 11.10 44000 205000 (1960) 32100 (1991) 70000 36500 37700 41100 42200 54700 93800 100000 126000 140000
2026-04-10 05:00 11.09 44000 205000 (1960) 32100 (1991) 70000 36500 37700 41100 42200 54700 93800 100000 126000 140000
2026-04-10 04:00 11.07 43800 205000 (1960) 32100 (1991) 70000 36500 37700 41100 42200 54700 93800 100000 126000 140000
2026-04-10 03:00 11.08 43900 205000 (1960) 32100 (1991) 70000 36500 37700 41100 42200 54700 93800 100000 126000 140000
2026-04-10 02:00 11.09 44000 205000 (1960) 32100 (1991) 70000 36500 37700 41100 42200 54700 93800 100000 126000 140000
2026-04-10 01:00 11.05 43700 205000 (1960) 32100 (1991) 70000 36500 37700 41100 42200 54700 93800 100000 126000 140000
2026-04-10 00:00 11.08 43900 205000 (1960) 32100 (1991) 70000 36500 37700 41100 42200 54700 93800 100000 126000 140000
2026-04-09 23:00 11.08 43900 205000 (1960) 32100 (1991) 70000 36500 37700 41100 42200 54700 93800 100000 126000 140000
2026-04-09 22:00 11.09 44000 213000 (1960) 32000 (1991) 69700 36600 37800 41400 42800 54600 95700 103000 123000 144000
2026-04-09 21:00 11.09 44000 213000 (1960) 32000 (1991) 69700 36600 37800 41400 42800 54600 95700 103000 123000 144000
2026-04-09 20:00 11.08 43900 213000 (1960) 32000 (1991) 69700 36600 37800 41400 42800 54600 95700 103000 123000 144000
2026-04-09 19:00 11.08 43900 213000 (1960) 32000 (1991) 69700 36600 37800 41400 42800 54600 95700 103000 123000 144000
2026-04-09 18:00 11.09 44000 213000 (1960) 32000 (1991) 69700 36600 37800 41400 42800 54600 95700 103000 123000 144000
2026-04-09 17:00 11.11 44100 213000 (1960) 32000 (1991) 69700 36600 37800 41400 42800 54600 95700 103000 123000 144000
2026-04-09 16:00 11.14 44200 213000 (1960) 32000 (1991) 69700 36600 37800 41400 42800 54600 95700 103000 123000 144000
2026-04-09 15:00 11.15 44300 213000 (1960) 32000 (1991) 69700 36600 37800 41400 42800 54600 95700 103000 123000 144000
2026-04-09 14:00 11.13 44200 213000 (1960) 32000 (1991) 69700 36600 37800 41400 42800 54600 95700 103000 123000 144000
2026-04-09 13:00 11.17 44400 213000 (1960) 32000 (1991) 69700 36600 37800 41400 42800 54600 95700 103000 123000 144000
2026-04-09 12:00 11.17 44400 213000 (1960) 32000 (1991) 69700 36600 37800 41400 42800 54600 95700 103000 123000 144000
2026-04-09 11:00 11.18 44500 213000 (1960) 32000 (1991) 69700 36600 37800 41400 42800 54600 95700 103000 123000 144000
2026-04-09 10:00 11.20 44600 213000 (1960) 32000 (1991) 69700 36600 37800 41400 42800 54600 95700 103000 123000 144000
2026-04-09 09:00 11.20 44600 213000 (1960) 32000 (1991) 69700 36600 37800 41400 42800 54600 95700 103000 123000 144000
2026-04-09 08:00 11.21 44600 213000 (1960) 32000 (1991) 69700 36600 37800 41400 42800 54600 95700 103000 123000 144000
2026-04-09 07:00 11.20 44600 213000 (1960) 32000 (1991) 69700 36600 37800 41400 42800 54600 95700 103000 123000 144000
2026-04-09 06:00 11.21 44600 213000 (1960) 32000 (1991) 69700 36600 37800 41400 42800 54600 95700 103000 123000 144000
2026-04-09 05:00 11.24 44800 213000 (1960) 32000 (1991) 69700 36600 37800 41400 42800 54600 95700 103000 123000 144000
2026-04-09 04:00 11.25 44900 213000 (1960) 32000 (1991) 69700 36600 37800 41400 42800 54600 95700 103000 123000 144000
2026-04-09 03:00 11.25 44900 213000 (1960) 32000 (1991) 69700 36600 37800 41400 42800 54600 95700 103000 123000 144000
2026-04-09 02:00 11.25 44900 213000 (1960) 32000 (1991) 69700 36600 37800 41400 42800 54600 95700 103000 123000 144000
2026-04-09 01:00 11.24 44800 213000 (1960) 32000 (1991) 69700 36600 37800 41400 42800 54600 95700 103000 123000 144000
2026-04-09 00:00 11.24 44800 213000 (1960) 32000 (1991) 69700 36600 37800 41400 42800 54600 95700 103000 123000 144000
2026-04-08 23:00 11.23 44700 213000 (1960) 32000 (1991) 69700 36600 37800 41400 42800 54600 95700 103000 123000 144000
2026-04-08 22:00 11.24 44800 220000 (1960) 31500 (1991) 70400 37600 38300 41000 42700 52900 98700 105000 126000 150000
2026-04-08 21:00 11.23 44700 220000 (1960) 31500 (1991) 70400 37600 38300 41000 42700 52900 98700 105000 126000 150000
2026-04-08 20:00 11.23 44700 220000 (1960) 31500 (1991) 70400 37600 38300 41000 42700 52900 98700 105000 126000 150000
2026-04-08 19:00 11.23 44700 220000 (1960) 31500 (1991) 70400 37600 38300 41000 42700 52900 98700 105000 126000 150000
2026-04-08 18:00 11.18 44500 220000 (1960) 31500 (1991) 70400 37600 38300 41000 42700 52900 98700 105000 126000 150000
2026-04-08 17:00 11.18 44500 220000 (1960) 31500 (1991) 70400 37600 38300 41000 42700 52900 98700 105000 126000 150000
2026-04-08 16:00 11.14 44200 220000 (1960) 31500 (1991) 70400 37600 38300 41000 42700 52900 98700 105000 126000 150000
2026-04-08 15:00 11.15 44300 220000 (1960) 31500 (1991) 70400 37600 38300 41000 42700 52900 98700 105000 126000 150000
2026-04-08 14:00 11.13 44200 220000 (1960) 31500 (1991) 70400 37600 38300 41000 42700 52900 98700 105000 126000 150000
2026-04-08 13:00 11.09 44000 220000 (1960) 31500 (1991) 70400 37600 38300 41000 42700 52900 98700 105000 126000 150000
2026-04-08 12:00 11.11 44100 220000 (1960) 31500 (1991) 70400 37600 38300 41000 42700 52900 98700 105000 126000 150000
2026-04-08 11:00 11.12 44100 220000 (1960) 31500 (1991) 70400 37600 38300 41000 42700 52900 98700 105000 126000 150000
2026-04-08 10:00 11.16 44400 220000 (1960) 31500 (1991) 70400 37600 38300 41000 42700 52900 98700 105000 126000 150000
2026-04-08 09:00 11.17 44400 220000 (1960) 31500 (1991) 70400 37600 38300 41000 42700 52900 98700 105000 126000 150000
2026-04-08 08:00 11.16 44400 220000 (1960) 31500 (1991) 70400 37600 38300 41000 42700 52900 98700 105000 126000 150000
2026-04-08 07:00 11.15 44300 220000 (1960) 31500 (1991) 70400 37600 38300 41000 42700 52900 98700 105000 126000 150000
2026-04-08 06:00 11.13 44200 220000 (1960) 31500 (1991) 70400 37600 38300 41000 42700 52900 98700 105000 126000 150000
2026-04-08 05:00 11.12 44100 220000 (1960) 31500 (1991) 70400 37600 38300 41000 42700 52900 98700 105000 126000 150000
2026-04-08 04:00 11.07 43800 220000 (1960) 31500 (1991) 70400 37600 38300 41000 42700 52900 98700 105000 126000 150000
2026-04-08 03:00 11.09 44000 220000 (1960) 31500 (1991) 70400 37600 38300 41000 42700 52900 98700 105000 126000 150000
2026-04-08 02:00 11.08 43900 220000 (1960) 31500 (1991) 70400 37600 38300 41000 42700 52900 98700 105000 126000 150000
2026-04-08 01:00 11.06 43800 220000 (1960) 31500 (1991) 70400 37600 38300 41000 42700 52900 98700 105000 126000 150000
2026-04-08 00:00 11.04 43700 220000 (1960) 31500 (1991) 70400 37600 38300 41000 42700 52900 98700 105000 126000 150000
2026-04-07 23:00 10.98 43300 220000 (1960) 31500 (1991) 70400 37600 38300 41000 42700 52900 98700 105000 126000 150000
2026-04-07 22:00 11.01 43500 227000 (1960) 31700 (1991) 72500 37100 38700 41500 43600 53300 101000 111000 133000 153000
2026-04-07 21:00 11.03 43600 227000 (1960) 31700 (1991) 72500 37100 38700 41500 43600 53300 101000 111000 133000 153000
2026-04-07 20:00 10.98 43300 227000 (1960) 31700 (1991) 72500 37100 38700 41500 43600 53300 101000 111000 133000 153000
2026-04-07 19:00 10.95 43200 227000 (1960) 31700 (1991) 72500 37100 38700 41500 43600 53300 101000 111000 133000 153000
2026-04-07 18:00 10.94 43100 227000 (1960) 31700 (1991) 72500 37100 38700 41500 43600 53300 101000 111000 133000 153000
2026-04-07 17:00 10.92 43000 227000 (1960) 31700 (1991) 72500 37100 38700 41500 43600 53300 101000 111000 133000 153000
2026-04-07 16:00 10.90 42900 227000 (1960) 31700 (1991) 72500 37100 38700 41500 43600 53300 101000 111000 133000 153000
2026-04-07 15:00 10.88 42800 227000 (1960) 31700 (1991) 72500 37100 38700 41500 43600 53300 101000 111000 133000 153000
2026-04-07 14:00 10.90 42900 227000 (1960) 31700 (1991) 72500 37100 38700 41500 43600 53300 101000 111000 133000 153000
2026-04-07 13:00 10.90 42900 227000 (1960) 31700 (1991) 72500 37100 38700 41500 43600 53300 101000 111000 133000 153000
2026-04-07 12:00 10.90 42900 227000 (1960) 31700 (1991) 72500 37100 38700 41500 43600 53300 101000 111000 133000 153000
2026-04-07 11:00 10.84 42600 227000 (1960) 31700 (1991) 72500 37100 38700 41500 43600 53300 101000 111000 133000 153000
2026-04-07 10:00 10.87 42700 227000 (1960) 31700 (1991) 72500 37100 38700 41500 43600 53300 101000 111000 133000 153000
2026-04-07 09:00 10.87 42700 227000 (1960) 31700 (1991) 72500 37100 38700 41500 43600 53300 101000 111000 133000 153000
2026-04-07 08:00 10.87 42700 227000 (1960) 31700 (1991) 72500 37100 38700 41500 43600 53300 101000 111000 133000 153000
2026-04-07 07:00 10.85 42600 227000 (1960) 31700 (1991) 72500 37100 38700 41500 43600 53300 101000 111000 133000 153000
2026-04-07 06:00 10.88 42800 227000 (1960) 31700 (1991) 72500 37100 38700 41500 43600 53300 101000 111000 133000 153000
2026-04-07 05:00 10.86 42700 227000 (1960) 31700 (1991) 72500 37100 38700 41500 43600 53300 101000 111000 133000 153000
2026-04-07 04:00 10.86 42700 227000 (1960) 31700 (1991) 72500 37100 38700 41500 43600 53300 101000 111000 133000 153000
2026-04-07 03:00 10.85 42600 227000 (1960) 31700 (1991) 72500 37100 38700 41500 43600 53300 101000 111000 133000 153000
2026-04-07 02:00 10.89 42800 227000 (1960) 31700 (1991) 72500 37100 38700 41500 43600 53300 101000 111000 133000 153000
2026-04-07 01:00 10.91 43000 227000 (1960) 31700 (1991) 72500 37100 38700 41500 43600 53300 101000 111000 133000 153000
2026-04-07 00:00 10.90 42900 227000 (1960) 31700 (1991) 72500 37100 38700 41500 43600 53300 101000 111000 133000 153000
2026-04-06 23:00 10.91 43000 227000 (1960) 31700 (1991) 72500 37100 38700 41500 43600 53300 101000 111000 133000 153000
2026-04-06 22:00 10.89 42800 234000 (1960) 32500 (1991) 74200 36700 39600 43000 44200 54900 101000 115000 140000 161000
2026-04-06 21:00 10.92 43000 234000 (1960) 32500 (1991) 74200 36700 39600 43000 44200 54900 101000 115000 140000 161000
2026-04-06 20:00 10.96 43200 234000 (1960) 32500 (1991) 74200 36700 39600 43000 44200 54900 101000 115000 140000 161000
2026-04-06 19:00 10.96 43200 234000 (1960) 32500 (1991) 74200 36700 39600 43000 44200 54900 101000 115000 140000 161000
2026-04-06 18:00 10.97 43300 234000 (1960) 32500 (1991) 74200 36700 39600 43000 44200 54900 101000 115000 140000 161000
2026-04-06 17:00 10.93 43100 234000 (1960) 32500 (1991) 74200 36700 39600 43000 44200 54900 101000 115000 140000 161000
2026-04-06 16:00 10.96 43200 234000 (1960) 32500 (1991) 74200 36700 39600 43000 44200 54900 101000 115000 140000 161000
2026-04-06 15:00 10.97 43300 234000 (1960) 32500 (1991) 74200 36700 39600 43000 44200 54900 101000 115000 140000 161000
2026-04-06 14:00 10.89 42800 234000 (1960) 32500 (1991) 74200 36700 39600 43000 44200 54900 101000 115000 140000 161000
2026-04-06 13:00 10.91 43000 234000 (1960) 32500 (1991) 74200 36700 39600 43000 44200 54900 101000 115000 140000 161000
2026-04-06 12:00 10.92 43000 234000 (1960) 32500 (1991) 74200 36700 39600 43000 44200 54900 101000 115000 140000 161000
2026-04-06 11:00 10.88 42800 234000 (1960) 32500 (1991) 74200 36700 39600 43000 44200 54900 101000 115000 140000 161000
2026-04-06 10:00 10.91 43000 234000 (1960) 32500 (1991) 74200 36700 39600 43000 44200 54900 101000 115000 140000 161000
2026-04-06 09:00 10.92 43000 234000 (1960) 32500 (1991) 74200 36700 39600 43000 44200 54900 101000 115000 140000 161000
2026-04-06 08:00 10.91 43000 234000 (1960) 32500 (1991) 74200 36700 39600 43000 44200 54900 101000 115000 140000 161000
2026-04-06 07:00 10.90 42900 234000 (1960) 32500 (1991) 74200 36700 39600 43000 44200 54900 101000 115000 140000 161000
2026-04-06 06:00 10.89 42800 234000 (1960) 32500 (1991) 74200 36700 39600 43000 44200 54900 101000 115000 140000 161000
2026-04-06 05:00 10.89 42800 234000 (1960) 32500 (1991) 74200 36700 39600 43000 44200 54900 101000 115000 140000 161000
2026-04-06 04:00 10.88 42800 234000 (1960) 32500 (1991) 74200 36700 39600 43000 44200 54900 101000 115000 140000 161000
2026-04-06 03:00 10.87 42700 234000 (1960) 32500 (1991) 74200 36700 39600 43000 44200 54900 101000 115000 140000 161000
2026-04-06 02:00 10.86 42700 234000 (1960) 32500 (1991) 74200 36700 39600 43000 44200 54900 101000 115000 140000 161000
2026-04-06 01:00 10.85 42600 234000 (1960) 32500 (1991) 74200 36700 39600 43000 44200 54900 101000 115000 140000 161000
2026-04-06 00:00 10.84 42600 234000 (1960) 32500 (1991) 74200 36700 39600 43000 44200 54900 101000 115000 140000 161000
2026-04-05 23:00 10.83 42500 234000 (1960) 32500 (1991) 74200 36700 39600 43000 44200 54900 101000 115000 140000 161000
2026-04-05 22:00 10.82 42500 239000 (1960) 33500 (2003) 75100 35500 40500 44000 45900 55600 97200 112000 142000 169000
2026-04-05 21:00 10.83 42500 239000 (1960) 33500 (2003) 75100 35500 40500 44000 45900 55600 97200 112000 142000 169000
2026-04-05 20:00 10.82 42500 239000 (1960) 33500 (2003) 75100 35500 40500 44000 45900 55600 97200 112000 142000 169000
2026-04-05 19:00 10.80 42400 239000 (1960) 33500 (2003) 75100 35500 40500 44000 45900 55600 97200 112000 142000 169000
2026-04-05 18:00 10.78 42200 239000 (1960) 33500 (2003) 75100 35500 40500 44000 45900 55600 97200 112000 142000 169000
2026-04-05 17:00 10.81 42400 239000 (1960) 33500 (2003) 75100 35500 40500 44000 45900 55600 97200 112000 142000 169000
2026-04-05 16:00 10.79 42300 239000 (1960) 33500 (2003) 75100 35500 40500 44000 45900 55600 97200 112000 142000 169000
2026-04-05 15:00 10.72 41900 239000 (1960) 33500 (2003) 75100 35500 40500 44000 45900 55600 97200 112000 142000 169000
2026-04-05 14:00 10.73 42000 239000 (1960) 33500 (2003) 75100 35500 40500 44000 45900 55600 97200 112000 142000 169000
2026-04-05 13:00 10.75 42100 239000 (1960) 33500 (2003) 75100 35500 40500 44000 45900 55600 97200 112000 142000 169000
2026-04-05 12:00 10.73 42000 239000 (1960) 33500 (2003) 75100 35500 40500 44000 45900 55600 97200 112000 142000 169000
2026-04-05 11:00 10.72 41900 239000 (1960) 33500 (2003) 75100 35500 40500 44000 45900 55600 97200 112000 142000 169000
2026-04-05 10:00 10.71 41900 239000 (1960) 33500 (2003) 75100 35500 40500 44000 45900 55600 97200 112000 142000 169000
2026-04-05 09:00 10.68 41700 239000 (1960) 33500 (2003) 75100 35500 40500 44000 45900 55600 97200 112000 142000 169000
2026-04-05 08:00 10.68 41700 239000 (1960) 33500 (2003) 75100 35500 40500 44000 45900 55600 97200 112000 142000 169000
2026-04-05 07:00 10.58 41200 239000 (1960) 33500 (2003) 75100 35500 40500 44000 45900 55600 97200 112000 142000 169000
2026-04-05 06:00 10.63 41400 239000 (1960) 33500 (2003) 75100 35500 40500 44000 45900 55600 97200 112000 142000 169000
2026-04-05 05:00 10.61 41300 239000 (1960) 33500 (2003) 75100 35500 40500 44000 45900 55600 97200 112000 142000 169000
2026-04-05 04:00 10.61 41300 239000 (1960) 33500 (2003) 75100 35500 40500 44000 45900 55600 97200 112000 142000 169000
2026-04-05 03:00 10.57 41100 239000 (1960) 33500 (2003) 75100 35500 40500 44000 45900 55600 97200 112000 142000 169000
2026-04-05 02:00 10.60 41300 239000 (1960) 33500 (2003) 75100 35500 40500 44000 45900 55600 97200 112000 142000 169000
2026-04-05 01:00 10.57 41100 239000 (1960) 33500 (2003) 75100 35500 40500 44000 45900 55600 97200 112000 142000 169000
2026-04-05 00:00 10.55 41000 239000 (1960) 33500 (2003) 75100 35500 40500 44000 45900 55600 97200 112000 142000 169000
2026-04-04 23:00 10.53 40900 239000 (1960) 33500 (2003) 75100 35500 40500 44000 45900 55600 97200 112000 142000 169000

A total of 730 rows are displayed for years 1958 through 2024.